AFL270 UUEE-VTBS
Flight info
| Callsign | AFL270 |
|---|---|
| Flight time | 8h 16m |
| Altitude | 33000 |
| Route | TOGMO M56 GERLI M161 MILSO/K0906F350 M161 AMDAR/N0491F350 M875 TAPIS L509 SULOM A466 ASARI L509 GGC R460 CEA/N0496F370 L507 IGONI |
| Aircraft | B77W/H-SDE1E2E3FGHIJ2J3J4J5M1RWXY/LB1D1 |
Departure
| Time | 2026-05-07 16:36 |
|---|---|
| Airport | Sheremetyevo International Airport (UUEE) |
Arrival
| Time | 2026-05-08 00:53 |
|---|---|
| Airport | Suvarnabhumi Airport (VTBS) |
| Time | Latitude | Longitude | Altitude | Speed | Heading |
|---|---|---|---|---|---|
| 2026-05-07 15:48 | 55.97900 | 37.41645 | 644 ft | 0 kts | 77° |
| 2026-05-07 16:20 | 55.97897 | 37.41619 | 648 ft | 3 kts | 78° |
| 2026-05-07 16:20 | 55.97893 | 37.41580 | 645 ft | 3 kts | 82° |
| 2026-05-07 16:21 | 55.97890 | 37.41540 | 644 ft | 3 kts | 89° |
| 2026-05-07 16:21 | 55.97892 | 37.41501 | 644 ft | 3 kts | 111° |
| 2026-05-07 16:21 | 55.97902 | 37.41474 | 644 ft | 2 kts | 163° |
| 2026-05-07 16:21 | 55.97904 | 37.41474 | 644 ft | 0 kts | 165° |
| 2026-05-07 16:28 | 55.97903 | 37.41474 | 644 ft | 2 kts | 165° |
| 2026-05-07 16:28 | 55.97857 | 37.41496 | 646 ft | 8 kts | 165° |
| 2026-05-07 16:29 | 55.97802 | 37.41523 | 648 ft | 8 kts | 165° |
| 2026-05-07 16:29 | 55.97748 | 37.41549 | 644 ft | 8 kts | 165° |
| 2026-05-07 16:29 | 55.97693 | 37.41575 | 644 ft | 8 kts | 165° |
| 2026-05-07 16:29 | 55.97639 | 37.41602 | 644 ft | 8 kts | 163° |
| 2026-05-07 16:30 | 55.97611 | 37.41680 | 645 ft | 8 kts | 91° |
| 2026-05-07 16:30 | 55.97624 | 37.41780 | 644 ft | 8 kts | 75° |
| 2026-05-07 16:30 | 55.97639 | 37.41880 | 644 ft | 9 kts | 75° |
| 2026-05-07 16:30 | 55.97658 | 37.42012 | 649 ft | 13 kts | 74° |
| 2026-05-07 16:31 | 55.97686 | 37.42190 | 645 ft | 15 kts | 75° |
| 2026-05-07 16:31 | 55.97713 | 37.42374 | 647 ft | 15 kts | 75° |
| 2026-05-07 16:31 | 55.97740 | 37.42558 | 643 ft | 15 kts | 75° |
| 2026-05-07 16:31 | 55.97767 | 37.42740 | 646 ft | 15 kts | 75° |
| 2026-05-07 16:32 | 55.97795 | 37.42924 | 646 ft | 15 kts | 75° |
| 2026-05-07 16:32 | 55.97822 | 37.43108 | 646 ft | 15 kts | 75° |
| 2026-05-07 16:32 | 55.97850 | 37.43292 | 646 ft | 15 kts | 75° |
| 2026-05-07 16:32 | 55.97878 | 37.43476 | 646 ft | 15 kts | 75° |
| 2026-05-07 16:33 | 55.97905 | 37.43659 | 648 ft | 15 kts | 75° |
| 2026-05-07 16:33 | 55.97931 | 37.43830 | 646 ft | 13 kts | 75° |
| 2026-05-07 16:33 | 55.97947 | 37.43937 | 649 ft | 7 kts | 75° |
| 2026-05-07 16:33 | 55.97935 | 37.44019 | 644 ft | 7 kts | 133° |
| 2026-05-07 16:34 | 55.97889 | 37.44051 | 646 ft | 7 kts | 165° |
| 2026-05-07 16:34 | 55.97840 | 37.44075 | 645 ft | 7 kts | 165° |
| 2026-05-07 16:34 | 55.97793 | 37.44064 | 644 ft | 7 kts | 224° |
| 2026-05-07 16:34 | 55.97776 | 37.43984 | 645 ft | 0 kts | 255° |
| 2026-05-07 16:35 | 55.97745 | 37.43778 | 649 ft | 50 kts | 255° |
| 2026-05-07 16:36 | 55.97591 | 37.42749 | 644 ft | 119 kts | 255° |
| 2026-05-07 16:36 | 55.97323 | 37.40959 | 650 ft | 177 kts | 255° |
| 2026-05-07 16:36 | 55.96934 | 37.38617 | 761 ft | 206 kts | 253° |
| 2026-05-07 16:36 | 55.96548 | 37.36165 | 1377 ft | 206 kts | 253° |
| 2026-05-07 16:37 | 55.96146 | 37.33668 | 1965 ft | 211 kts | 251° |
| 2026-05-07 16:37 | 55.95721 | 37.31159 | 2568 ft | 216 kts | 252° |
| 2026-05-07 16:37 | 55.95307 | 37.28483 | 2855 ft | 236 kts | 250° |
| 2026-05-07 16:37 | 55.94864 | 37.25614 | 3486 ft | 242 kts | 251° |
| 2026-05-07 16:38 | 55.94420 | 37.22646 | 4020 ft | 253 kts | 251° |
| 2026-05-07 16:38 | 55.93952 | 37.19600 | 4703 ft | 256 kts | 251° |
| 2026-05-07 16:38 | 55.93480 | 37.16525 | 5389 ft | 256 kts | 252° |
| 2026-05-07 16:38 | 55.93003 | 37.13456 | 6096 ft | 257 kts | 252° |
| 2026-05-07 16:39 | 55.92522 | 37.10398 | 6792 ft | 251 kts | 252° |
| 2026-05-07 16:39 | 55.92047 | 37.07416 | 7361 ft | 257 kts | 252° |
| 2026-05-07 16:39 | 55.91622 | 37.04279 | 7822 ft | 264 kts | 264° |
| 2026-05-07 16:39 | 55.91915 | 37.01011 | 8352 ft | 273 kts | 289° |
| 2026-05-07 16:40 | 55.92872 | 36.98272 | 8956 ft | 280 kts | 309° |
| 2026-05-07 16:40 | 55.94434 | 36.96105 | 9543 ft | 290 kts | 329° |
| 2026-05-07 16:40 | 55.96405 | 36.95126 | 10102 ft | 302 kts | 354° |
| 2026-05-07 16:40 | 55.98522 | 36.95710 | 10387 ft | 326 kts | 20° |
| 2026-05-07 16:41 | 56.00501 | 36.97810 | 10819 ft | 339 kts | 37° |
| 2026-05-07 16:41 | 56.02156 | 37.00907 | 11306 ft | 350 kts | 51° |
| 2026-05-07 16:41 | 56.03613 | 37.04465 | 11920 ft | 356 kts | 54° |
| 2026-05-07 16:41 | 56.05043 | 37.08109 | 12666 ft | 359 kts | 53° |
| 2026-05-07 16:42 | 56.06519 | 37.11742 | 13433 ft | 361 kts | 52° |
| 2026-05-07 16:42 | 56.08038 | 37.15334 | 14179 ft | 363 kts | 51° |
| 2026-05-07 16:42 | 56.09592 | 37.18931 | 14790 ft | 368 kts | 51° |
| 2026-05-07 16:42 | 56.11130 | 37.22611 | 14862 ft | 370 kts | 59° |
| 2026-05-07 16:43 | 56.12023 | 37.26909 | 14909 ft | 370 kts | 84° |
| 2026-05-07 16:43 | 56.11953 | 37.31463 | 14892 ft | 365 kts | 107° |
| 2026-05-07 16:43 | 56.10976 | 37.35597 | 15114 ft | 359 kts | 129° |
| 2026-05-07 16:43 | 56.09358 | 37.38967 | 15797 ft | 354 kts | 144° |
| 2026-05-07 16:44 | 56.07331 | 37.41309 | 16496 ft | 344 kts | 160° |
| 2026-05-07 16:44 | 56.05162 | 37.43066 | 17105 ft | 348 kts | 162° |
| 2026-05-07 16:44 | 56.02934 | 37.44828 | 17739 ft | 352 kts | 161° |
| 2026-05-07 16:44 | 56.00692 | 37.46651 | 18399 ft | 355 kts | 160° |
| 2026-05-07 16:45 | 55.98439 | 37.48522 | 19034 ft | 359 kts | 159° |
| 2026-05-07 16:45 | 55.96201 | 37.50530 | 19587 ft | 364 kts | 150° |
| 2026-05-07 16:45 | 55.94361 | 37.53745 | 19945 ft | 380 kts | 125° |
| 2026-05-07 16:45 | 55.93322 | 37.58147 | 20410 ft | 390 kts | 104° |
| 2026-05-07 16:46 | 55.92989 | 37.61309 | 20770 ft | 393 kts | 102° |
| 2026-05-07 16:46 | 55.92351 | 37.67717 | 21538 ft | 397 kts | 102° |
| 2026-05-07 16:46 | 55.91832 | 37.72566 | 22158 ft | 398 kts | 104° |
| 2026-05-07 16:46 | 55.90932 | 37.77207 | 22647 ft | 397 kts | 121° |
| 2026-05-07 16:47 | 55.89537 | 37.81460 | 23145 ft | 399 kts | 124° |
| 2026-05-07 16:47 | 55.88099 | 37.85715 | 23657 ft | 403 kts | 123° |
| 2026-05-07 16:47 | 55.86689 | 37.90076 | 24196 ft | 406 kts | 122° |
| 2026-05-07 16:47 | 55.85309 | 37.94471 | 24719 ft | 409 kts | 122° |
| 2026-05-07 16:48 | 55.83940 | 37.98862 | 25232 ft | 411 kts | 122° |
| 2026-05-07 16:48 | 55.82617 | 38.03085 | 25718 ft | 414 kts | 122° |
| 2026-05-07 16:48 | 55.81202 | 38.07567 | 26215 ft | 414 kts | 124° |
| 2026-05-07 16:48 | 55.80061 | 38.10352 | 26408 ft | 412 kts | 139° |
| 2026-05-07 16:49 | 55.76964 | 38.14168 | 26660 ft | 413 kts | 163° |
| 2026-05-07 16:49 | 55.74201 | 38.15648 | 26757 ft | 419 kts | 168° |
| 2026-05-07 16:49 | 55.71347 | 38.17014 | 26850 ft | 431 kts | 168° |
| 2026-05-07 16:49 | 55.68438 | 38.18419 | 26934 ft | 443 kts | 168° |
| 2026-05-07 16:50 | 55.65414 | 38.19898 | 27020 ft | 455 kts | 168° |
| 2026-05-07 16:50 | 55.62325 | 38.21427 | 27105 ft | 466 kts | 167° |
| 2026-05-07 16:50 | 55.59178 | 38.22997 | 27291 ft | 473 kts | 167° |
| 2026-05-07 16:50 | 55.55994 | 38.24582 | 27635 ft | 476 kts | 167° |
| 2026-05-07 16:51 | 55.52800 | 38.26186 | 28072 ft | 476 kts | 167° |
| 2026-05-07 16:51 | 55.50683 | 38.27251 | 28345 ft | 477 kts | 167° |
| 2026-05-07 16:51 | 55.46438 | 38.29380 | 28801 ft | 479 kts | 167° |
| 2026-05-07 16:51 | 55.43217 | 38.30986 | 29102 ft | 482 kts | 167° |
| 2026-05-07 16:52 | 55.39983 | 38.32593 | 29393 ft | 484 kts | 167° |
| 2026-05-07 16:52 | 55.36734 | 38.34202 | 29672 ft | 486 kts | 167° |
| 2026-05-07 16:52 | 55.33471 | 38.35819 | 29982 ft | 487 kts | 167° |
| 2026-05-07 16:52 | 55.30204 | 38.37439 | 30355 ft | 485 kts | 167° |
| 2026-05-07 16:53 | 55.26998 | 38.39026 | 30751 ft | 484 kts | 167° |
| 2026-05-07 16:53 | 55.23747 | 38.40629 | 31107 ft | 483 kts | 167° |
| 2026-05-07 16:53 | 55.20508 | 38.42223 | 31435 ft | 482 kts | 167° |
| 2026-05-07 16:53 | 55.17272 | 38.43812 | 31716 ft | 483 kts | 167° |
| 2026-05-07 16:54 | 55.14076 | 38.45378 | 32009 ft | 482 kts | 167° |
| 2026-05-07 16:54 | 55.10842 | 38.46957 | 32319 ft | 481 kts | 167° |
| 2026-05-07 16:54 | 55.07608 | 38.48539 | 32617 ft | 481 kts | 167° |
| 2026-05-07 16:54 | 55.04380 | 38.50117 | 32824 ft | 482 kts | 167° |
| 2026-05-07 16:55 | 55.01133 | 38.51699 | 32861 ft | 485 kts | 167° |
| 2026-05-07 16:55 | 54.94681 | 38.54835 | 32877 ft | 481 kts | 167° |
| 2026-05-07 16:56 | 54.88238 | 38.57956 | 32901 ft | 479 kts | 167° |
| 2026-05-07 16:56 | 54.79665 | 38.62110 | 32887 ft | 480 kts | 165° |
| 2026-05-07 16:57 | 54.72542 | 38.67427 | 32912 ft | 485 kts | 151° |
| 2026-05-07 16:57 | 54.66786 | 38.73586 | 32920 ft | 487 kts | 150° |
| 2026-05-07 16:58 | 54.60985 | 38.79663 | 32922 ft | 488 kts | 151° |
| 2026-05-07 16:58 | 54.56129 | 38.84673 | 32915 ft | 488 kts | 151° |
| 2026-05-07 16:59 | 54.50291 | 38.90699 | 32922 ft | 488 kts | 151° |
| 2026-05-07 16:59 | 54.44456 | 38.96699 | 32913 ft | 488 kts | 151° |
| 2026-05-07 17:00 | 54.39363 | 39.03690 | 32913 ft | 489 kts | 131° |
| 2026-05-07 17:00 | 54.35940 | 39.13759 | 32924 ft | 492 kts | 111° |
| 2026-05-07 17:01 | 54.33515 | 39.24761 | 32923 ft | 493 kts | 112° |
| 2026-05-07 17:01 | 54.30902 | 39.35651 | 32920 ft | 494 kts | 114° |
| 2026-05-07 17:02 | 54.28261 | 39.46418 | 32916 ft | 492 kts | 113° |
| 2026-05-07 17:02 | 54.25612 | 39.57221 | 32935 ft | 490 kts | 113° |
| 2026-05-07 17:03 | 54.22977 | 39.67959 | 32941 ft | 488 kts | 113° |
| 2026-05-07 17:03 | 54.20350 | 39.78636 | 32946 ft | 487 kts | 113° |
| 2026-05-07 17:04 | 54.17726 | 39.89253 | 32945 ft | 487 kts | 114° |
| 2026-05-07 17:04 | 54.15080 | 39.99875 | 32944 ft | 486 kts | 114° |
| 2026-05-07 17:05 | 54.12501 | 40.10198 | 32946 ft | 485 kts | 113° |
| 2026-05-07 17:05 | 54.10315 | 40.21070 | 32953 ft | 486 kts | 107° |
| 2026-05-07 17:06 | 54.08436 | 40.32151 | 32947 ft | 486 kts | 107° |
| 2026-05-07 17:06 | 54.06533 | 40.43213 | 32955 ft | 487 kts | 107° |
| 2026-05-07 17:07 | 54.04600 | 40.54218 | 32956 ft | 488 kts | 107° |
| 2026-05-07 17:07 | 54.02655 | 40.65177 | 32954 ft | 489 kts | 107° |
| 2026-05-07 17:08 | 54.00689 | 40.76193 | 32956 ft | 489 kts | 107° |
| 2026-05-07 17:08 | 53.98709 | 40.87240 | 32958 ft | 489 kts | 107° |
| 2026-05-07 17:09 | 53.96714 | 40.98292 | 32954 ft | 488 kts | 107° |
| 2026-05-07 17:09 | 53.94822 | 41.08959 | 32949 ft | 485 kts | 106° |
| 2026-05-07 17:10 | 53.93041 | 41.19989 | 32947 ft | 482 kts | 105° |
| 2026-05-07 17:10 | 53.91276 | 41.30973 | 32953 ft | 481 kts | 105° |
| 2026-05-07 17:11 | 53.89488 | 41.41844 | 32954 ft | 480 kts | 105° |
| 2026-05-07 17:11 | 53.87674 | 41.52769 | 32956 ft | 481 kts | 105° |
| 2026-05-07 17:12 | 53.85871 | 41.63559 | 32955 ft | 481 kts | 106° |
| 2026-05-07 17:12 | 53.84127 | 41.73951 | 32954 ft | 482 kts | 106° |
| 2026-05-07 17:13 | 53.82269 | 41.84867 | 32954 ft | 482 kts | 106° |
| 2026-05-07 17:13 | 53.80435 | 41.95478 | 32954 ft | 482 kts | 106° |
| 2026-05-07 17:14 | 53.78654 | 42.05726 | 32952 ft | 482 kts | 106° |
| 2026-05-07 17:14 | 53.76762 | 42.16567 | 32956 ft | 483 kts | 106° |
| 2026-05-07 17:15 | 53.74863 | 42.27410 | 32953 ft | 482 kts | 107° |
| 2026-05-07 17:15 | 53.72951 | 42.38259 | 32949 ft | 482 kts | 106° |
| 2026-05-07 17:16 | 53.71023 | 42.49109 | 32954 ft | 482 kts | 107° |
| 2026-05-07 17:16 | 53.69094 | 42.59937 | 32955 ft | 481 kts | 107° |
| 2026-05-07 17:17 | 53.67170 | 42.70728 | 32953 ft | 481 kts | 105° |
| 2026-05-07 17:17 | 53.65440 | 42.81628 | 32954 ft | 482 kts | 104° |
| 2026-05-07 17:18 | 53.63764 | 42.92597 | 32957 ft | 482 kts | 104° |
| 2026-05-07 17:18 | 53.62107 | 43.03187 | 32953 ft | 481 kts | 104° |
| 2026-05-07 17:19 | 53.60374 | 43.14073 | 32951 ft | 481 kts | 104° |
| 2026-05-07 17:19 | 53.58618 | 43.24965 | 32956 ft | 481 kts | 104° |
| 2026-05-07 17:20 | 53.56853 | 43.35862 | 32950 ft | 482 kts | 105° |
| 2026-05-07 17:20 | 53.55093 | 43.46680 | 32956 ft | 482 kts | 105° |
| 2026-05-07 17:21 | 53.53309 | 43.57573 | 32954 ft | 482 kts | 105° |
| 2026-05-07 17:21 | 53.51512 | 43.68472 | 32954 ft | 483 kts | 105° |
| 2026-05-07 17:22 | 53.49718 | 43.79289 | 32953 ft | 483 kts | 105° |
| 2026-05-07 17:22 | 53.47904 | 43.90169 | 32953 ft | 483 kts | 105° |
| 2026-05-07 17:23 | 53.46125 | 44.00700 | 32953 ft | 483 kts | 105° |
| 2026-05-07 17:23 | 53.44292 | 44.11495 | 32954 ft | 482 kts | 105° |
| 2026-05-07 17:24 | 53.42440 | 44.22350 | 32951 ft | 482 kts | 105° |
| 2026-05-07 17:24 | 53.40587 | 44.33132 | 32955 ft | 482 kts | 105° |
| 2026-05-07 17:25 | 53.38722 | 44.43933 | 32951 ft | 482 kts | 105° |
| 2026-05-07 17:25 | 53.36844 | 44.54744 | 32956 ft | 482 kts | 105° |
| 2026-05-07 17:26 | 53.34984 | 44.65461 | 32953 ft | 482 kts | 105° |
| 2026-05-07 17:26 | 53.33114 | 44.76240 | 32956 ft | 482 kts | 105° |
| 2026-05-07 17:27 | 53.31230 | 44.87033 | 32955 ft | 482 kts | 105° |
| 2026-05-07 17:27 | 53.29352 | 44.97722 | 32950 ft | 482 kts | 105° |
| 2026-05-07 17:28 | 53.27470 | 45.08166 | 32951 ft | 482 kts | 108° |
| 2026-05-07 17:28 | 53.25210 | 45.18702 | 32953 ft | 481 kts | 109° |
| 2026-05-07 17:29 | 53.22887 | 45.29193 | 32956 ft | 482 kts | 109° |
| 2026-05-07 17:29 | 53.20576 | 45.39693 | 32953 ft | 482 kts | 109° |
| 2026-05-07 17:30 | 53.18269 | 45.50207 | 32942 ft | 483 kts | 109° |
| 2026-05-07 17:30 | 53.15942 | 45.60729 | 32946 ft | 483 kts | 109° |
| 2026-05-07 17:31 | 53.13622 | 45.71191 | 32944 ft | 483 kts | 109° |
| 2026-05-07 17:31 | 53.11287 | 45.81670 | 32944 ft | 483 kts | 109° |
| 2026-05-07 17:32 | 53.08954 | 45.92143 | 32944 ft | 482 kts | 109° |
| 2026-05-07 17:32 | 53.07081 | 46.00592 | 32945 ft | 482 kts | 109° |
| 2026-05-07 17:33 | 53.04374 | 46.12751 | 32945 ft | 482 kts | 109° |
| 2026-05-07 17:33 | 53.02027 | 46.23217 | 32947 ft | 482 kts | 109° |
| 2026-05-07 17:34 | 52.99677 | 46.33633 | 32942 ft | 482 kts | 109° |
| 2026-05-07 17:34 | 52.97320 | 46.44056 | 32943 ft | 482 kts | 109° |
| 2026-05-07 17:35 | 52.94941 | 46.54451 | 32946 ft | 481 kts | 110° |
| 2026-05-07 17:35 | 52.92562 | 46.64753 | 32944 ft | 481 kts | 110° |
| 2026-05-07 17:36 | 52.90164 | 46.75115 | 32946 ft | 481 kts | 110° |
| 2026-05-07 17:36 | 52.87756 | 46.85465 | 32941 ft | 481 kts | 110° |
| 2026-05-07 17:37 | 52.85341 | 46.95823 | 32944 ft | 481 kts | 110° |
| 2026-05-07 17:37 | 52.82991 | 47.05835 | 32941 ft | 481 kts | 110° |
| 2026-05-07 17:38 | 52.80612 | 47.16168 | 32944 ft | 480 kts | 108° |
| 2026-05-07 17:38 | 52.78429 | 47.26624 | 32947 ft | 481 kts | 108° |
| 2026-05-07 17:39 | 52.76250 | 47.37062 | 32947 ft | 481 kts | 108° |
| 2026-05-07 17:39 | 52.74045 | 47.47403 | 32944 ft | 481 kts | 108° |
| 2026-05-07 17:40 | 52.71809 | 47.57802 | 32943 ft | 480 kts | 108° |
| 2026-05-07 17:40 | 52.69560 | 47.68181 | 32944 ft | 480 kts | 109° |
| 2026-05-07 17:41 | 52.67305 | 47.78539 | 32948 ft | 479 kts | 109° |
| 2026-05-07 17:41 | 52.65062 | 47.88816 | 32942 ft | 479 kts | 109° |
| 2026-05-07 17:42 | 52.62797 | 47.99140 | 32946 ft | 479 kts | 109° |
| 2026-05-07 17:42 | 52.60603 | 48.09095 | 32944 ft | 479 kts | 109° |
| 2026-05-07 17:43 | 52.58317 | 48.19348 | 32944 ft | 479 kts | 109° |
| 2026-05-07 17:43 | 52.56017 | 48.29601 | 32946 ft | 479 kts | 109° |
| 2026-05-07 17:44 | 52.53697 | 48.39920 | 32943 ft | 479 kts | 109° |
| 2026-05-07 17:44 | 52.51378 | 48.50185 | 32946 ft | 480 kts | 109° |
| 2026-05-07 17:45 | 52.49052 | 48.60433 | 32945 ft | 480 kts | 109° |
| 2026-05-07 17:45 | 52.47101 | 48.68985 | 32945 ft | 480 kts | 109° |
| 2026-05-07 17:46 | 52.44754 | 48.79226 | 32943 ft | 480 kts | 109° |
| 2026-05-07 17:46 | 52.42403 | 48.89450 | 32944 ft | 479 kts | 109° |
| 2026-05-07 17:47 | 52.40046 | 48.99638 | 32942 ft | 478 kts | 109° |
| 2026-05-07 17:47 | 52.37750 | 49.09519 | 32945 ft | 478 kts | 110° |
| 2026-05-07 17:48 | 52.35378 | 49.19684 | 32947 ft | 478 kts | 110° |
| 2026-05-07 17:48 | 52.32989 | 49.29877 | 32943 ft | 478 kts | 110° |
| 2026-05-07 17:49 | 52.30607 | 49.40031 | 32949 ft | 479 kts | 110° |
| 2026-05-07 17:49 | 52.28214 | 49.50151 | 32945 ft | 480 kts | 110° |
| 2026-05-07 17:50 | 52.25792 | 49.60309 | 32945 ft | 480 kts | 110° |
| 2026-05-07 17:50 | 52.23360 | 49.70469 | 32944 ft | 479 kts | 110° |
| 2026-05-07 17:51 | 52.20940 | 49.80523 | 32945 ft | 478 kts | 110° |
| 2026-05-07 17:51 | 52.18508 | 49.90614 | 32943 ft | 478 kts | 110° |
| 2026-05-07 17:52 | 52.16112 | 50.00502 | 32946 ft | 478 kts | 110° |
| 2026-05-07 17:52 | 52.13672 | 50.10510 | 32942 ft | 478 kts | 110° |
| 2026-05-07 17:53 | 52.11208 | 50.20593 | 32945 ft | 478 kts | 110° |
| 2026-05-07 17:53 | 52.08748 | 50.30596 | 32941 ft | 478 kts | 110° |
| 2026-05-07 17:54 | 52.06275 | 50.40615 | 32947 ft | 477 kts | 110° |
| 2026-05-07 17:54 | 52.03784 | 50.50640 | 32943 ft | 478 kts | 111° |
| 2026-05-07 17:55 | 52.01279 | 50.60693 | 32946 ft | 478 kts | 111° |
| 2026-05-07 17:55 | 51.98799 | 50.70603 | 32952 ft | 479 kts | 111° |
| 2026-05-07 17:56 | 51.96279 | 50.80643 | 32953 ft | 479 kts | 111° |
| 2026-05-07 17:56 | 51.93757 | 50.90588 | 32955 ft | 478 kts | 111° |
| 2026-05-07 17:57 | 51.91587 | 50.98894 | 32958 ft | 478 kts | 112° |
| 2026-05-07 17:57 | 51.88611 | 51.10178 | 32952 ft | 478 kts | 112° |
| 2026-05-07 17:58 | 51.85996 | 51.20080 | 32954 ft | 477 kts | 112° |
| 2026-05-07 17:58 | 51.83390 | 51.29933 | 32955 ft | 476 kts | 112° |
| 2026-05-07 17:59 | 51.80775 | 51.39776 | 32956 ft | 476 kts | 112° |
| 2026-05-07 17:59 | 51.78163 | 51.49553 | 32956 ft | 476 kts | 112° |
| 2026-05-07 18:00 | 51.75528 | 51.59391 | 32968 ft | 476 kts | 112° |
| 2026-05-07 18:00 | 51.72889 | 51.69200 | 32964 ft | 476 kts | 113° |
| 2026-05-07 18:01 | 51.70260 | 51.78944 | 32961 ft | 476 kts | 113° |
| 2026-05-07 18:01 | 51.66862 | 51.88040 | 32960 ft | 477 kts | 132° |
| 2026-05-07 18:02 | 51.61609 | 51.94596 | 32966 ft | 479 kts | 150° |
| 2026-05-07 18:02 | 51.58704 | 51.97083 | 32974 ft | 479 kts | 151° |
| 2026-05-07 18:03 | 51.52924 | 52.01990 | 32966 ft | 482 kts | 151° |
| 2026-05-07 18:03 | 51.47002 | 52.07097 | 33095 ft | 484 kts | 150° |
| 2026-05-07 18:03 | 51.44080 | 52.09643 | 33424 ft | 482 kts | 150° |
| 2026-05-07 18:04 | 51.41145 | 52.12204 | 33791 ft | 479 kts | 150° |
| 2026-05-07 18:04 | 51.38226 | 52.14756 | 34145 ft | 476 kts | 150° |
| 2026-05-07 18:04 | 51.35313 | 52.17298 | 34466 ft | 475 kts | 151° |
| 2026-05-07 18:04 | 51.32403 | 52.19829 | 34674 ft | 475 kts | 150° |
| 2026-05-07 18:05 | 51.29486 | 52.22365 | 34849 ft | 476 kts | 151° |
| 2026-05-07 18:05 | 51.23675 | 52.27400 | 34950 ft | 477 kts | 151° |
| 2026-05-07 18:06 | 51.17835 | 52.32445 | 34960 ft | 475 kts | 151° |
| 2026-05-07 18:06 | 51.12025 | 52.37454 | 34969 ft | 472 kts | 151° |
| 2026-05-07 18:07 | 51.06286 | 52.42378 | 34972 ft | 471 kts | 151° |
| 2026-05-07 18:07 | 51.00497 | 52.47335 | 34974 ft | 472 kts | 151° |
| 2026-05-07 18:08 | 50.94707 | 52.52281 | 34980 ft | 474 kts | 151° |
| 2026-05-07 18:08 | 50.88911 | 52.57241 | 34979 ft | 475 kts | 149° |
| 2026-05-07 18:09 | 50.83494 | 52.63262 | 34965 ft | 475 kts | 139° |
| 2026-05-07 18:09 | 50.78526 | 52.70109 | 34966 ft | 475 kts | 139° |
| 2026-05-07 18:10 | 50.73522 | 52.76963 | 34973 ft | 475 kts | 139° |
| 2026-05-07 18:10 | 50.68503 | 52.83760 | 34974 ft | 474 kts | 140° |
| 2026-05-07 18:11 | 50.63481 | 52.90525 | 34980 ft | 474 kts | 140° |
| 2026-05-07 18:11 | 50.58491 | 52.97219 | 34981 ft | 473 kts | 140° |
| 2026-05-07 18:12 | 50.53593 | 53.03778 | 34999 ft | 473 kts | 140° |
| 2026-05-07 18:12 | 50.48605 | 53.10434 | 34973 ft | 472 kts | 140° |
| 2026-05-07 18:13 | 50.43584 | 53.17125 | 34966 ft | 471 kts | 140° |
| 2026-05-07 18:13 | 50.38581 | 53.23767 | 34964 ft | 470 kts | 140° |
| 2026-05-07 18:14 | 50.33618 | 53.30332 | 34961 ft | 469 kts | 140° |
| 2026-05-07 18:14 | 50.28630 | 53.36920 | 34962 ft | 468 kts | 140° |
| 2026-05-07 18:15 | 50.23638 | 53.43493 | 34963 ft | 468 kts | 140° |
| 2026-05-07 18:15 | 50.18684 | 53.49995 | 34963 ft | 467 kts | 140° |
| 2026-05-07 18:16 | 50.13694 | 53.56526 | 34963 ft | 466 kts | 141° |
| 2026-05-07 18:16 | 50.08742 | 53.62986 | 34964 ft | 466 kts | 141° |
| 2026-05-07 18:17 | 50.03770 | 53.69463 | 34967 ft | 466 kts | 141° |
| 2026-05-07 18:17 | 49.98770 | 53.75950 | 34962 ft | 467 kts | 141° |
| 2026-05-07 18:18 | 49.93815 | 53.82371 | 34964 ft | 467 kts | 141° |
| 2026-05-07 18:18 | 49.88883 | 53.88968 | 34963 ft | 468 kts | 136° |
| 2026-05-07 18:19 | 49.84557 | 53.96515 | 34969 ft | 468 kts | 131° |
| 2026-05-07 18:19 | 49.80417 | 54.03968 | 34968 ft | 468 kts | 132° |
| 2026-05-07 18:20 | 49.76856 | 54.10316 | 34966 ft | 468 kts | 132° |
| 2026-05-07 18:20 | 49.71870 | 54.19131 | 34965 ft | 468 kts | 132° |
| 2026-05-07 18:21 | 49.67604 | 54.26649 | 34962 ft | 468 kts | 133° |
| 2026-05-07 18:21 | 49.63299 | 54.34217 | 34966 ft | 468 kts | 133° |
| 2026-05-07 18:22 | 49.58992 | 54.41770 | 34966 ft | 468 kts | 133° |
| 2026-05-07 18:22 | 49.54714 | 54.49238 | 34963 ft | 467 kts | 133° |
| 2026-05-07 18:23 | 49.50398 | 54.56755 | 34962 ft | 467 kts | 133° |
| 2026-05-07 18:23 | 49.46082 | 54.64253 | 34964 ft | 468 kts | 134° |
| 2026-05-07 18:24 | 49.41753 | 54.71756 | 34961 ft | 468 kts | 134° |
| 2026-05-07 18:24 | 49.38152 | 54.77980 | 34962 ft | 468 kts | 134° |
| 2026-05-07 18:25 | 49.33110 | 54.86667 | 34963 ft | 469 kts | 134° |
| 2026-05-07 18:25 | 49.28765 | 54.94136 | 34961 ft | 469 kts | 134° |
| 2026-05-07 18:26 | 49.24509 | 55.01419 | 34964 ft | 470 kts | 135° |
| 2026-05-07 18:26 | 49.20177 | 55.08819 | 34967 ft | 469 kts | 135° |
| 2026-05-07 18:27 | 49.16542 | 55.15018 | 34975 ft | 469 kts | 135° |
| 2026-05-07 18:27 | 49.11428 | 55.23688 | 34972 ft | 470 kts | 135° |
| 2026-05-07 18:28 | 49.07786 | 55.29851 | 34977 ft | 470 kts | 135° |
| 2026-05-07 18:28 | 49.02687 | 55.38457 | 34971 ft | 469 kts | 135° |
| 2026-05-07 18:29 | 48.99057 | 55.44573 | 34975 ft | 469 kts | 136° |
| 2026-05-07 18:29 | 48.94673 | 55.51930 | 34969 ft | 468 kts | 136° |
| 2026-05-07 18:30 | 48.90286 | 55.59271 | 34970 ft | 467 kts | 136° |
| 2026-05-07 18:30 | 48.85931 | 55.66545 | 34974 ft | 466 kts | 136° |
| 2026-05-07 18:31 | 48.81547 | 55.73825 | 34969 ft | 466 kts | 136° |
| 2026-05-07 18:31 | 48.77174 | 55.81042 | 34975 ft | 466 kts | 137° |
| 2026-05-07 18:32 | 48.72783 | 55.88277 | 34975 ft | 466 kts | 137° |
| 2026-05-07 18:32 | 48.68388 | 55.95500 | 34975 ft | 466 kts | 137° |
| 2026-05-07 18:33 | 48.64123 | 56.02514 | 34971 ft | 466 kts | 137° |
| 2026-05-07 18:33 | 48.59721 | 56.09741 | 34970 ft | 466 kts | 137° |
| 2026-05-07 18:34 | 48.55354 | 56.16906 | 34974 ft | 465 kts | 137° |
| 2026-05-07 18:34 | 48.50948 | 56.24100 | 34970 ft | 465 kts | 137° |
| 2026-05-07 18:35 | 48.46545 | 56.31270 | 34973 ft | 465 kts | 137° |
| 2026-05-07 18:35 | 48.42145 | 56.38420 | 34972 ft | 465 kts | 137° |
| 2026-05-07 18:36 | 48.37761 | 56.45534 | 34970 ft | 465 kts | 138° |
| 2026-05-07 18:36 | 48.33354 | 56.52652 | 34969 ft | 465 kts | 138° |
| 2026-05-07 18:37 | 48.28941 | 56.59761 | 34975 ft | 465 kts | 138° |
| 2026-05-07 18:37 | 48.24550 | 56.66818 | 34972 ft | 465 kts | 138° |
| 2026-05-07 18:38 | 48.20118 | 56.73925 | 34974 ft | 466 kts | 138° |
| 2026-05-07 18:38 | 48.15679 | 56.81017 | 34974 ft | 466 kts | 138° |
| 2026-05-07 18:39 | 48.11257 | 56.88068 | 34972 ft | 467 kts | 138° |
| 2026-05-07 18:39 | 48.06798 | 56.95162 | 34973 ft | 467 kts | 138° |
| 2026-05-07 18:40 | 48.02472 | 57.02021 | 34971 ft | 467 kts | 138° |
| 2026-05-07 18:40 | 47.98021 | 57.09060 | 34972 ft | 467 kts | 139° |
| 2026-05-07 18:41 | 47.93546 | 57.16122 | 34972 ft | 468 kts | 139° |
| 2026-05-07 18:41 | 47.89075 | 57.23159 | 34975 ft | 468 kts | 139° |
| 2026-05-07 18:42 | 47.84578 | 57.30215 | 34975 ft | 468 kts | 139° |
| 2026-05-07 18:42 | 47.80111 | 57.37202 | 34974 ft | 469 kts | 139° |
| 2026-05-07 18:43 | 47.75610 | 57.44229 | 34971 ft | 469 kts | 139° |
| 2026-05-07 18:43 | 47.71166 | 57.51146 | 34978 ft | 469 kts | 139° |
| 2026-05-07 18:44 | 47.66649 | 57.58165 | 34972 ft | 469 kts | 139° |
| 2026-05-07 18:44 | 47.62132 | 57.65157 | 34974 ft | 469 kts | 140° |
| 2026-05-07 18:45 | 47.57596 | 57.72135 | 34969 ft | 469 kts | 140° |
| 2026-05-07 18:45 | 47.53090 | 57.79053 | 34969 ft | 469 kts | 140° |
| 2026-05-07 18:46 | 47.48556 | 57.85999 | 34976 ft | 468 kts | 140° |
| 2026-05-07 18:46 | 47.44014 | 57.92939 | 34973 ft | 469 kts | 140° |
| 2026-05-07 18:47 | 47.39471 | 57.99863 | 34977 ft | 469 kts | 140° |
| 2026-05-07 18:47 | 47.35056 | 58.06579 | 34961 ft | 470 kts | 140° |
| 2026-05-07 18:48 | 47.30492 | 58.13502 | 34969 ft | 470 kts | 140° |
| 2026-05-07 18:48 | 47.25917 | 58.20423 | 34962 ft | 471 kts | 140° |
| 2026-05-07 18:49 | 47.21358 | 58.27302 | 34962 ft | 472 kts | 140° |
| 2026-05-07 18:49 | 47.16750 | 58.34245 | 34964 ft | 474 kts | 140° |
| 2026-05-07 18:50 | 47.12150 | 58.41159 | 34964 ft | 476 kts | 140° |
| 2026-05-07 18:50 | 47.07498 | 58.48127 | 34962 ft | 477 kts | 141° |
| 2026-05-07 18:51 | 47.02876 | 58.55036 | 34962 ft | 478 kts | 140° |
| 2026-05-07 18:51 | 46.98222 | 58.61980 | 34966 ft | 478 kts | 141° |
| 2026-05-07 18:52 | 46.93547 | 58.68935 | 34968 ft | 478 kts | 141° |
| 2026-05-07 18:52 | 46.88896 | 58.75830 | 34970 ft | 477 kts | 141° |
| 2026-05-07 18:53 | 46.84221 | 58.82744 | 34962 ft | 477 kts | 141° |
| 2026-05-07 18:53 | 46.79574 | 58.89604 | 34957 ft | 478 kts | 141° |
| 2026-05-07 18:54 | 46.74875 | 58.96517 | 34957 ft | 479 kts | 141° |
| 2026-05-07 18:54 | 46.70302 | 59.03226 | 34955 ft | 479 kts | 141° |
| 2026-05-07 18:55 | 46.65581 | 59.10136 | 34954 ft | 480 kts | 141° |
| 2026-05-07 18:55 | 46.60885 | 59.16990 | 34954 ft | 480 kts | 141° |
| 2026-05-07 18:56 | 46.56153 | 59.23883 | 34951 ft | 481 kts | 141° |
| 2026-05-07 18:56 | 46.51438 | 59.30731 | 34952 ft | 482 kts | 141° |
| 2026-05-07 18:57 | 46.46674 | 59.37629 | 34956 ft | 483 kts | 141° |
| 2026-05-07 18:57 | 46.41913 | 59.44512 | 34950 ft | 484 kts | 141° |
| 2026-05-07 18:58 | 46.37131 | 59.51405 | 34957 ft | 483 kts | 141° |
| 2026-05-07 18:58 | 46.32383 | 59.58230 | 34957 ft | 484 kts | 141° |
| 2026-05-07 18:59 | 46.27587 | 59.65106 | 34953 ft | 485 kts | 141° |
| 2026-05-07 18:59 | 46.22782 | 59.71983 | 34956 ft | 485 kts | 141° |
| 2026-05-07 19:00 | 46.17921 | 59.78607 | 34955 ft | 482 kts | 144° |
| 2026-05-07 19:00 | 46.12947 | 59.85094 | 34952 ft | 482 kts | 144° |
| 2026-05-07 19:01 | 46.07955 | 59.91614 | 34945 ft | 483 kts | 144° |
| 2026-05-07 19:01 | 46.03007 | 59.98114 | 34929 ft | 484 kts | 144° |
| 2026-05-07 19:02 | 45.98171 | 60.04471 | 34925 ft | 484 kts | 144° |
| 2026-05-07 19:02 | 45.93179 | 60.11017 | 34928 ft | 485 kts | 144° |
| 2026-05-07 19:03 | 45.88213 | 60.17508 | 34925 ft | 484 kts | 144° |
| 2026-05-07 19:03 | 45.83233 | 60.24003 | 34922 ft | 483 kts | 144° |
| 2026-05-07 19:04 | 45.78248 | 60.30488 | 34928 ft | 483 kts | 144° |
| 2026-05-07 19:04 | 45.73287 | 60.36927 | 34919 ft | 483 kts | 144° |
| 2026-05-07 19:05 | 45.68286 | 60.43393 | 34919 ft | 484 kts | 144° |
| 2026-05-07 19:05 | 45.63277 | 60.49861 | 34915 ft | 485 kts | 144° |
| 2026-05-07 19:06 | 45.58291 | 60.56286 | 34924 ft | 485 kts | 144° |
| 2026-05-07 19:06 | 45.50749 | 60.65963 | 34917 ft | 487 kts | 144° |
| 2026-05-07 19:07 | 45.45708 | 60.72422 | 34912 ft | 487 kts | 144° |
| 2026-05-07 19:07 | 45.40650 | 60.78872 | 34915 ft | 488 kts | 144° |
| 2026-05-07 19:08 | 45.35607 | 60.85281 | 34917 ft | 488 kts | 144° |
| 2026-05-07 19:08 | 45.30521 | 60.91734 | 34920 ft | 490 kts | 144° |
| 2026-05-07 19:09 | 45.25422 | 60.98186 | 34916 ft | 490 kts | 144° |
| 2026-05-07 19:09 | 45.20460 | 61.04453 | 34917 ft | 491 kts | 144° |
| 2026-05-07 19:10 | 45.15351 | 61.10888 | 34915 ft | 491 kts | 144° |
| 2026-05-07 19:10 | 45.10251 | 61.17298 | 34918 ft | 492 kts | 144° |
| 2026-05-07 19:11 | 45.05132 | 61.23722 | 34915 ft | 492 kts | 144° |
| 2026-05-07 19:11 | 45.00006 | 61.30130 | 34918 ft | 491 kts | 144° |
| 2026-05-07 19:12 | 44.94888 | 61.36517 | 34914 ft | 491 kts | 144° |
| 2026-05-07 19:12 | 44.89780 | 61.42872 | 34919 ft | 491 kts | 144° |
| 2026-05-07 19:13 | 44.85508 | 61.48178 | 34913 ft | 491 kts | 144° |
| 2026-05-07 19:13 | 44.79533 | 61.55590 | 34917 ft | 491 kts | 144° |
| 2026-05-07 19:14 | 44.75257 | 61.60885 | 34916 ft | 492 kts | 144° |
| 2026-05-07 19:14 | 44.70091 | 61.67260 | 34917 ft | 493 kts | 144° |
| 2026-05-07 19:15 | 44.64924 | 61.73627 | 34918 ft | 494 kts | 145° |
| 2026-05-07 19:15 | 44.59782 | 61.79947 | 34910 ft | 494 kts | 145° |
| 2026-05-07 19:16 | 44.54601 | 61.86302 | 34905 ft | 494 kts | 145° |
| 2026-05-07 19:16 | 44.48565 | 61.93672 | 34907 ft | 495 kts | 145° |
| 2026-05-07 19:17 | 44.44212 | 61.98990 | 34908 ft | 495 kts | 145° |
| 2026-05-07 19:17 | 44.39170 | 62.05130 | 34907 ft | 494 kts | 145° |
| 2026-05-07 19:18 | 44.33970 | 62.11445 | 34902 ft | 495 kts | 145° |
| 2026-05-07 19:18 | 44.28780 | 62.17725 | 34910 ft | 495 kts | 145° |
| 2026-05-07 19:19 | 44.23562 | 62.24033 | 34908 ft | 496 kts | 145° |
| 2026-05-07 19:19 | 44.18366 | 62.30298 | 34910 ft | 496 kts | 145° |
| 2026-05-07 19:20 | 44.13125 | 62.36581 | 34905 ft | 496 kts | 145° |
| 2026-05-07 19:20 | 44.07871 | 62.42848 | 34906 ft | 496 kts | 146° |
| 2026-05-07 19:21 | 44.02623 | 62.49098 | 34907 ft | 496 kts | 145° |
| 2026-05-07 19:21 | 43.97427 | 62.55280 | 34902 ft | 495 kts | 145° |
| 2026-05-07 19:22 | 43.92180 | 62.61508 | 34907 ft | 496 kts | 145° |
| 2026-05-07 19:22 | 43.86919 | 62.67731 | 34909 ft | 497 kts | 145° |
| 2026-05-07 19:23 | 43.81644 | 62.73958 | 34906 ft | 498 kts | 145° |
| 2026-05-07 19:23 | 43.76390 | 62.80154 | 34912 ft | 499 kts | 145° |
| 2026-05-07 19:24 | 43.71077 | 62.86391 | 34905 ft | 500 kts | 145° |
| 2026-05-07 19:24 | 43.65792 | 62.92567 | 34906 ft | 500 kts | 145° |
| 2026-05-07 19:25 | 43.60470 | 62.98784 | 34907 ft | 500 kts | 145° |
| 2026-05-07 19:25 | 43.55271 | 63.04861 | 34906 ft | 500 kts | 145° |
| 2026-05-07 19:26 | 43.49989 | 63.11035 | 34910 ft | 501 kts | 145° |
| 2026-05-07 19:26 | 43.44652 | 63.17243 | 34903 ft | 500 kts | 145° |
| 2026-05-07 19:27 | 43.39357 | 63.23396 | 34908 ft | 501 kts | 145° |
| 2026-05-07 19:27 | 43.34018 | 63.29590 | 34907 ft | 501 kts | 145° |
| 2026-05-07 19:28 | 43.28712 | 63.35719 | 34897 ft | 500 kts | 145° |
| 2026-05-07 19:28 | 43.23358 | 63.41884 | 34900 ft | 501 kts | 145° |
| 2026-05-07 19:29 | 43.18034 | 63.48000 | 34899 ft | 502 kts | 145° |
| 2026-05-07 19:29 | 43.12674 | 63.54148 | 34897 ft | 502 kts | 145° |
| 2026-05-07 19:30 | 43.07311 | 63.60290 | 34899 ft | 501 kts | 145° |
| 2026-05-07 19:30 | 43.01980 | 63.66379 | 34895 ft | 501 kts | 145° |
| 2026-05-07 19:31 | 42.96626 | 63.72479 | 34916 ft | 501 kts | 145° |
| 2026-05-07 19:31 | 42.91265 | 63.78562 | 34930 ft | 501 kts | 145° |
| 2026-05-07 19:32 | 42.85938 | 63.84594 | 34929 ft | 502 kts | 145° |
| 2026-05-07 19:32 | 42.80553 | 63.90688 | 34917 ft | 501 kts | 145° |
| 2026-05-07 19:33 | 42.75174 | 63.96761 | 34918 ft | 502 kts | 145° |
| 2026-05-07 19:33 | 42.69932 | 64.02658 | 34917 ft | 502 kts | 145° |
| 2026-05-07 19:34 | 42.64521 | 64.08735 | 34919 ft | 503 kts | 145° |
| 2026-05-07 19:34 | 42.58997 | 64.14511 | 34919 ft | 499 kts | 152° |
| 2026-05-07 19:35 | 42.52960 | 64.18902 | 34927 ft | 492 kts | 160° |
| 2026-05-07 19:35 | 42.46730 | 64.22856 | 34920 ft | 493 kts | 160° |
| 2026-05-07 19:36 | 42.40557 | 64.26801 | 34916 ft | 493 kts | 160° |
| 2026-05-07 19:36 | 42.34354 | 64.30801 | 34917 ft | 493 kts | 159° |
| 2026-05-07 19:37 | 42.28156 | 64.34806 | 34909 ft | 493 kts | 160° |
| 2026-05-07 19:37 | 42.21993 | 64.38781 | 34907 ft | 493 kts | 160° |
| 2026-05-07 19:38 | 42.15788 | 64.42767 | 34911 ft | 493 kts | 160° |
| 2026-05-07 19:38 | 42.09616 | 64.46729 | 34911 ft | 493 kts | 160° |
| 2026-05-07 19:39 | 42.03397 | 64.50710 | 34908 ft | 492 kts | 160° |
| 2026-05-07 19:39 | 41.97232 | 64.54644 | 34907 ft | 492 kts | 160° |
| 2026-05-07 19:40 | 41.91069 | 64.58571 | 34905 ft | 493 kts | 159° |
| 2026-05-07 19:40 | 41.84857 | 64.62519 | 34908 ft | 493 kts | 159° |
| 2026-05-07 19:41 | 41.78629 | 64.66468 | 34902 ft | 494 kts | 159° |
| 2026-05-07 19:41 | 41.72441 | 64.70384 | 34899 ft | 495 kts | 159° |
| 2026-05-07 19:42 | 41.66199 | 64.74325 | 34896 ft | 494 kts | 159° |
| 2026-05-07 19:42 | 41.59996 | 64.78243 | 34898 ft | 494 kts | 159° |
| 2026-05-07 19:43 | 41.53765 | 64.82159 | 34896 ft | 495 kts | 159° |
| 2026-05-07 19:43 | 41.47570 | 64.86048 | 34901 ft | 494 kts | 159° |
| 2026-05-07 19:44 | 41.41400 | 64.89913 | 34900 ft | 496 kts | 159° |
| 2026-05-07 19:44 | 41.35139 | 64.93823 | 34900 ft | 497 kts | 159° |
| 2026-05-07 19:45 | 41.28913 | 64.97703 | 34900 ft | 497 kts | 159° |
| 2026-05-07 19:45 | 41.22762 | 65.01536 | 34898 ft | 497 kts | 159° |
| 2026-05-07 19:46 | 41.16526 | 65.05405 | 34894 ft | 497 kts | 159° |
| 2026-05-07 19:46 | 41.10241 | 65.09286 | 34900 ft | 496 kts | 159° |
| 2026-05-07 19:47 | 41.04015 | 65.13128 | 34884 ft | 496 kts | 159° |
| 2026-05-07 19:47 | 40.97761 | 65.16970 | 34888 ft | 496 kts | 159° |
| 2026-05-07 19:48 | 40.91495 | 65.20814 | 34885 ft | 496 kts | 159° |
| 2026-05-07 19:48 | 40.85252 | 65.24635 | 34891 ft | 496 kts | 159° |
| 2026-05-07 19:49 | 40.78982 | 65.28472 | 34888 ft | 496 kts | 159° |
| 2026-05-07 19:49 | 40.72736 | 65.32283 | 34891 ft | 497 kts | 159° |
| 2026-05-07 19:50 | 40.66444 | 65.36115 | 34888 ft | 497 kts | 159° |
| 2026-05-07 19:50 | 40.60142 | 65.39938 | 34890 ft | 498 kts | 159° |
| 2026-05-07 19:51 | 40.53884 | 65.43733 | 34890 ft | 499 kts | 159° |
| 2026-05-07 19:51 | 40.47576 | 65.47552 | 34887 ft | 499 kts | 159° |
| 2026-05-07 19:52 | 40.41260 | 65.51364 | 34888 ft | 499 kts | 159° |
| 2026-05-07 19:52 | 40.34968 | 65.55157 | 34892 ft | 500 kts | 159° |
| 2026-05-07 19:53 | 40.28628 | 65.58961 | 34886 ft | 500 kts | 159° |
| 2026-05-07 19:53 | 40.22277 | 65.62759 | 34886 ft | 501 kts | 159° |
| 2026-05-07 19:54 | 40.15964 | 65.66531 | 34891 ft | 500 kts | 159° |
| 2026-05-07 19:54 | 40.09605 | 65.70324 | 34888 ft | 501 kts | 159° |
| 2026-05-07 19:55 | 40.03300 | 65.74077 | 34887 ft | 501 kts | 159° |
| 2026-05-07 19:55 | 39.96969 | 65.77837 | 34884 ft | 500 kts | 159° |
| 2026-05-07 19:56 | 39.90631 | 65.81600 | 34891 ft | 500 kts | 159° |
| 2026-05-07 19:56 | 39.84331 | 65.85324 | 34888 ft | 500 kts | 159° |
| 2026-05-07 19:57 | 39.77983 | 65.89070 | 34888 ft | 500 kts | 159° |
| 2026-05-07 19:57 | 39.71624 | 65.92818 | 34890 ft | 501 kts | 159° |
| 2026-05-07 19:58 | 39.65269 | 65.96555 | 34889 ft | 501 kts | 159° |
| 2026-05-07 19:58 | 39.59101 | 66.00179 | 34888 ft | 501 kts | 159° |
| 2026-05-07 19:59 | 39.52725 | 66.03921 | 34886 ft | 502 kts | 158° |
| 2026-05-07 19:59 | 39.46393 | 66.07630 | 34890 ft | 502 kts | 158° |
| 2026-05-07 20:00 | 39.40016 | 66.11359 | 34899 ft | 502 kts | 158° |
| 2026-05-07 20:00 | 39.33643 | 66.15081 | 34897 ft | 503 kts | 158° |
| 2026-05-07 20:01 | 39.27265 | 66.18794 | 34902 ft | 502 kts | 158° |
| 2026-05-07 20:01 | 39.20886 | 66.22508 | 34897 ft | 503 kts | 158° |
| 2026-05-07 20:02 | 39.15566 | 66.25595 | 34897 ft | 503 kts | 158° |
| 2026-05-07 20:02 | 39.09208 | 66.29272 | 34897 ft | 504 kts | 158° |
| 2026-05-07 20:03 | 39.01720 | 66.33606 | 34907 ft | 504 kts | 158° |
| 2026-05-07 20:03 | 38.95368 | 66.37270 | 34906 ft | 504 kts | 158° |
| 2026-05-07 20:04 | 38.90029 | 66.40342 | 34907 ft | 505 kts | 158° |
| 2026-05-07 20:04 | 38.82557 | 66.44636 | 34908 ft | 506 kts | 158° |
| 2026-05-07 20:05 | 38.76126 | 66.48326 | 34914 ft | 506 kts | 158° |
| 2026-05-07 20:05 | 38.70758 | 66.51383 | 34920 ft | 507 kts | 159° |
| 2026-05-07 20:06 | 38.64301 | 66.55031 | 34915 ft | 507 kts | 159° |
| 2026-05-07 20:06 | 38.57834 | 66.58668 | 34916 ft | 507 kts | 159° |
| 2026-05-07 20:07 | 38.51409 | 66.62278 | 34917 ft | 507 kts | 159° |
| 2026-05-07 20:07 | 38.44930 | 66.65916 | 34916 ft | 508 kts | 159° |
| 2026-05-07 20:08 | 38.38459 | 66.69544 | 34913 ft | 507 kts | 159° |
| 2026-05-07 20:08 | 38.32031 | 66.73144 | 34933 ft | 507 kts | 159° |
| 2026-05-07 20:09 | 38.25564 | 66.76753 | 34924 ft | 507 kts | 159° |
| 2026-05-07 20:10 | 38.15898 | 66.82133 | 34928 ft | 507 kts | 159° |
| 2026-05-07 20:10 | 38.09412 | 66.85745 | 34929 ft | 508 kts | 159° |
| 2026-05-07 20:11 | 38.02923 | 66.89344 | 34927 ft | 507 kts | 159° |
| 2026-05-07 20:11 | 37.96514 | 66.92889 | 34938 ft | 507 kts | 158° |
| 2026-05-07 20:12 | 37.90026 | 66.96470 | 34935 ft | 508 kts | 158° |
| 2026-05-07 20:12 | 37.83596 | 67.00020 | 34935 ft | 509 kts | 158° |
| 2026-05-07 20:13 | 37.77216 | 67.03530 | 34945 ft | 510 kts | 158° |
| 2026-05-07 20:13 | 37.70699 | 67.07109 | 34947 ft | 510 kts | 158° |
| 2026-05-07 20:14 | 37.64183 | 67.10681 | 34951 ft | 510 kts | 158° |
| 2026-05-07 20:14 | 37.57665 | 67.14248 | 34962 ft | 510 kts | 158° |
| 2026-05-07 20:15 | 37.51180 | 67.17792 | 34961 ft | 510 kts | 158° |
| 2026-05-07 20:15 | 37.44660 | 67.21347 | 34967 ft | 510 kts | 158° |
| 2026-05-07 20:16 | 37.38171 | 67.24876 | 34974 ft | 510 kts | 158° |
| 2026-05-07 20:16 | 37.31658 | 67.28415 | 34970 ft | 510 kts | 158° |
| 2026-05-07 20:17 | 37.25123 | 67.31960 | 34974 ft | 510 kts | 158° |
| 2026-05-07 20:17 | 37.18700 | 67.35651 | 34981 ft | 511 kts | 153° |
| 2026-05-07 20:18 | 37.12486 | 67.40005 | 34981 ft | 512 kts | 152° |
| 2026-05-07 20:18 | 37.06310 | 67.44368 | 34981 ft | 511 kts | 152° |
| 2026-05-07 20:19 | 37.00086 | 67.48709 | 34998 ft | 512 kts | 153° |
| 2026-05-07 20:19 | 36.93856 | 67.53014 | 34990 ft | 512 kts | 153° |
| 2026-05-07 20:20 | 36.87608 | 67.57332 | 34983 ft | 513 kts | 152° |
| 2026-05-07 20:20 | 36.81386 | 67.61628 | 35001 ft | 513 kts | 153° |
| 2026-05-07 20:21 | 36.75110 | 67.65952 | 35003 ft | 514 kts | 153° |
| 2026-05-07 20:21 | 36.68866 | 67.70248 | 35007 ft | 514 kts | 153° |
| 2026-05-07 20:22 | 36.62590 | 67.74574 | 35003 ft | 515 kts | 152° |
| 2026-05-07 20:22 | 36.56320 | 67.78888 | 35014 ft | 514 kts | 153° |
| 2026-05-07 20:23 | 36.50073 | 67.83173 | 35000 ft | 515 kts | 152° |
| 2026-05-07 20:23 | 36.43779 | 67.87503 | 34982 ft | 516 kts | 152° |
| 2026-05-07 20:24 | 36.37525 | 67.91786 | 34987 ft | 516 kts | 153° |
| 2026-05-07 20:24 | 36.31226 | 67.96084 | 34977 ft | 516 kts | 153° |
| 2026-05-07 20:25 | 36.25076 | 68.00276 | 35001 ft | 515 kts | 153° |
| 2026-05-07 20:25 | 36.18814 | 68.04536 | 35000 ft | 515 kts | 152° |
| 2026-05-07 20:26 | 36.12514 | 68.08817 | 35004 ft | 515 kts | 153° |
| 2026-05-07 20:26 | 36.06216 | 68.13092 | 34986 ft | 516 kts | 153° |
| 2026-05-07 20:27 | 35.99967 | 68.17319 | 35003 ft | 515 kts | 153° |
| 2026-05-07 20:27 | 35.93651 | 68.21587 | 35003 ft | 516 kts | 153° |
| 2026-05-07 20:28 | 35.87347 | 68.25841 | 34997 ft | 516 kts | 153° |
| 2026-05-07 20:28 | 35.81082 | 68.30060 | 34996 ft | 516 kts | 153° |
| 2026-05-07 20:29 | 35.74769 | 68.34302 | 34998 ft | 516 kts | 153° |
| 2026-05-07 20:29 | 35.68447 | 68.38542 | 35009 ft | 516 kts | 153° |
| 2026-05-07 20:30 | 35.62173 | 68.42745 | 35003 ft | 517 kts | 153° |
| 2026-05-07 20:30 | 35.55847 | 68.46962 | 35019 ft | 518 kts | 153° |
| 2026-05-07 20:31 | 35.49472 | 68.51177 | 35009 ft | 520 kts | 153° |
| 2026-05-07 20:31 | 35.43086 | 68.55392 | 35022 ft | 521 kts | 153° |
| 2026-05-07 20:32 | 35.36725 | 68.59591 | 35024 ft | 521 kts | 153° |
| 2026-05-07 20:32 | 35.30321 | 68.63810 | 35014 ft | 522 kts | 153° |
| 2026-05-07 20:33 | 35.23962 | 68.67985 | 35013 ft | 522 kts | 153° |
| 2026-05-07 20:33 | 35.17563 | 68.72191 | 35025 ft | 522 kts | 153° |
| 2026-05-07 20:34 | 35.11142 | 68.76401 | 35021 ft | 523 kts | 153° |
| 2026-05-07 20:34 | 35.04721 | 68.80598 | 35026 ft | 523 kts | 153° |
| 2026-05-07 20:35 | 34.98330 | 68.84773 | 35033 ft | 523 kts | 153° |
| 2026-05-07 20:35 | 34.91875 | 68.88978 | 35029 ft | 524 kts | 153° |
| 2026-05-07 20:36 | 34.85455 | 68.93156 | 35036 ft | 525 kts | 153° |
| 2026-05-07 20:36 | 34.78984 | 68.97362 | 35032 ft | 526 kts | 153° |
| 2026-05-07 20:37 | 34.72694 | 69.01437 | 35038 ft | 527 kts | 153° |
| 2026-05-07 20:37 | 34.66207 | 69.05638 | 35032 ft | 527 kts | 153° |
| 2026-05-07 20:38 | 34.59724 | 69.09826 | 35042 ft | 527 kts | 153° |
| 2026-05-07 20:38 | 34.53567 | 69.14525 | 35035 ft | 527 kts | 138° |
| 2026-05-07 20:39 | 34.48839 | 69.21301 | 35038 ft | 526 kts | 118° |
| 2026-05-07 20:39 | 34.45527 | 69.29173 | 35040 ft | 524 kts | 114° |
| 2026-05-07 20:40 | 34.42291 | 69.37072 | 35042 ft | 527 kts | 115° |
| 2026-05-07 20:40 | 34.38940 | 69.45011 | 35043 ft | 529 kts | 115° |
| 2026-05-07 20:41 | 34.35564 | 69.52895 | 35057 ft | 529 kts | 115° |
| 2026-05-07 20:41 | 34.32167 | 69.60805 | 35081 ft | 528 kts | 115° |
| 2026-05-07 20:42 | 34.28790 | 69.68669 | 35116 ft | 528 kts | 115° |
| 2026-05-07 20:42 | 34.25406 | 69.76533 | 35110 ft | 528 kts | 115° |
| 2026-05-07 20:43 | 34.22005 | 69.84412 | 35117 ft | 528 kts | 115° |
| 2026-05-07 20:43 | 34.18601 | 69.92288 | 35118 ft | 528 kts | 115° |
| 2026-05-07 20:44 | 34.15220 | 70.00070 | 35115 ft | 528 kts | 115° |
| 2026-05-07 20:44 | 34.11842 | 70.07799 | 35128 ft | 528 kts | 115° |
| 2026-05-07 20:45 | 34.08434 | 70.15593 | 35121 ft | 528 kts | 115° |
| 2026-05-07 20:45 | 34.05002 | 70.23425 | 35129 ft | 527 kts | 115° |
| 2026-05-07 20:46 | 34.01561 | 70.31253 | 35122 ft | 527 kts | 115° |
| 2026-05-07 20:46 | 33.98158 | 70.38993 | 35107 ft | 527 kts | 116° |
| 2026-05-07 20:47 | 33.94586 | 70.46755 | 35063 ft | 529 kts | 122° |
| 2026-05-07 20:47 | 33.90055 | 70.53766 | 35051 ft | 531 kts | 132° |
| 2026-05-07 20:48 | 33.84724 | 70.59925 | 35025 ft | 531 kts | 136° |
| 2026-05-07 20:48 | 33.79325 | 70.65923 | 35008 ft | 531 kts | 136° |
| 2026-05-07 20:49 | 33.73921 | 70.72002 | 34997 ft | 531 kts | 136° |
| 2026-05-07 20:49 | 33.68536 | 70.78102 | 34982 ft | 531 kts | 136° |
| 2026-05-07 20:50 | 33.63190 | 70.84160 | 34993 ft | 530 kts | 136° |
| 2026-05-07 20:50 | 33.57803 | 70.90243 | 34981 ft | 531 kts | 136° |
| 2026-05-07 20:51 | 33.53323 | 70.95300 | 34978 ft | 529 kts | 134° |
| 2026-05-07 20:51 | 33.50460 | 70.99952 | 34997 ft | 522 kts | 112° |
| 2026-05-07 20:51 | 33.49314 | 71.03841 | 35000 ft | 517 kts | 99° |
| 2026-05-07 20:51 | 33.48883 | 71.08099 | 34986 ft | 512 kts | 84° |
| 2026-05-07 20:52 | 33.49058 | 71.10894 | 35005 ft | 507 kts | 79° |
| 2026-05-07 20:52 | 33.49758 | 71.19375 | 34993 ft | 515 kts | 80° |
| 2026-05-07 20:53 | 33.50351 | 71.27956 | 35009 ft | 513 kts | 81° |
| 2026-05-07 20:53 | 33.50867 | 71.36359 | 35002 ft | 505 kts | 81° |
| 2026-05-07 20:54 | 33.51373 | 71.44783 | 34997 ft | 507 kts | 81° |
| 2026-05-07 20:54 | 33.51884 | 71.53233 | 34996 ft | 508 kts | 81° |
| 2026-05-07 20:55 | 33.52395 | 71.61693 | 34999 ft | 508 kts | 81° |
| 2026-05-07 20:55 | 33.52893 | 71.70092 | 34994 ft | 508 kts | 81° |
| 2026-05-07 20:56 | 33.53390 | 71.78539 | 34993 ft | 505 kts | 82° |
| 2026-05-07 20:56 | 33.53287 | 71.82772 | 35000 ft | 511 kts | 94° |
| 2026-05-07 20:56 | 33.52491 | 71.86946 | 35012 ft | 516 kts | 105° |
| 2026-05-07 20:56 | 33.51103 | 71.90946 | 34998 ft | 522 kts | 116° |
| 2026-05-07 20:57 | 33.49187 | 71.94645 | 35021 ft | 522 kts | 121° |
| 2026-05-07 20:57 | 33.45242 | 72.01712 | 35008 ft | 524 kts | 121° |
| 2026-05-07 20:58 | 33.41195 | 72.09001 | 35005 ft | 524 kts | 121° |
| 2026-05-07 20:58 | 33.37238 | 72.16290 | 35004 ft | 525 kts | 120° |
| 2026-05-07 20:59 | 33.33276 | 72.23630 | 35004 ft | 524 kts | 120° |
| 2026-05-07 20:59 | 33.29304 | 72.30964 | 35001 ft | 524 kts | 121° |
| 2026-05-07 21:00 | 33.25348 | 72.38239 | 35001 ft | 524 kts | 121° |
| 2026-05-07 21:00 | 33.21358 | 72.45562 | 35000 ft | 524 kts | 121° |
| 2026-05-07 21:01 | 33.17377 | 72.52858 | 34985 ft | 524 kts | 121° |
| 2026-05-07 21:01 | 33.13394 | 72.60147 | 35004 ft | 524 kts | 121° |
| 2026-05-07 21:02 | 33.09421 | 72.67396 | 34997 ft | 525 kts | 121° |
| 2026-05-07 21:02 | 33.05421 | 72.74685 | 35009 ft | 525 kts | 121° |
| 2026-05-07 21:03 | 33.01406 | 72.81989 | 34985 ft | 525 kts | 121° |
| 2026-05-07 21:03 | 32.97428 | 72.89211 | 34984 ft | 525 kts | 121° |
| 2026-05-07 21:04 | 32.93399 | 72.96495 | 35001 ft | 525 kts | 121° |
| 2026-05-07 21:04 | 32.89497 | 73.03554 | 34984 ft | 525 kts | 121° |
| 2026-05-07 21:05 | 32.85469 | 73.10824 | 34981 ft | 525 kts | 121° |
| 2026-05-07 21:05 | 32.81440 | 73.18084 | 34980 ft | 525 kts | 122° |
| 2026-05-07 21:06 | 32.77175 | 73.25102 | 34979 ft | 527 kts | 130° |
| 2026-05-07 21:06 | 32.71939 | 73.31210 | 34971 ft | 528 kts | 141° |
| 2026-05-07 21:07 | 32.66145 | 73.36552 | 34977 ft | 528 kts | 142° |
| 2026-05-07 21:07 | 32.60307 | 73.41877 | 34957 ft | 529 kts | 142° |
| 2026-05-07 21:08 | 32.54519 | 73.47212 | 34925 ft | 529 kts | 142° |
| 2026-05-07 21:08 | 32.48701 | 73.52606 | 34905 ft | 530 kts | 142° |
| 2026-05-07 21:09 | 32.42920 | 73.57960 | 34890 ft | 530 kts | 142° |
| 2026-05-07 21:09 | 32.37092 | 73.63350 | 34888 ft | 530 kts | 142° |
| 2026-05-07 21:10 | 32.31298 | 73.68693 | 34891 ft | 531 kts | 142° |
| 2026-05-07 21:10 | 32.25456 | 73.74072 | 34888 ft | 531 kts | 142° |
| 2026-05-07 21:11 | 32.19608 | 73.79447 | 34890 ft | 531 kts | 142° |
| 2026-05-07 21:11 | 32.10903 | 73.87434 | 34890 ft | 531 kts | 142° |
| 2026-05-07 21:12 | 32.05057 | 73.92785 | 34888 ft | 531 kts | 142° |
| 2026-05-07 21:12 | 31.99224 | 73.98117 | 34890 ft | 531 kts | 142° |
| 2026-05-07 21:13 | 31.93538 | 74.03304 | 34890 ft | 531 kts | 142° |
| 2026-05-07 21:13 | 31.87672 | 74.08644 | 34887 ft | 531 kts | 142° |
| 2026-05-07 21:14 | 31.81851 | 74.13940 | 34889 ft | 531 kts | 142° |
| 2026-05-07 21:14 | 31.75986 | 74.19269 | 34888 ft | 531 kts | 142° |
| 2026-05-07 21:15 | 31.70123 | 74.24579 | 34889 ft | 531 kts | 142° |
| 2026-05-07 21:15 | 31.64261 | 74.29883 | 34888 ft | 531 kts | 142° |
| 2026-05-07 21:16 | 31.58437 | 74.35146 | 34891 ft | 531 kts | 142° |
| 2026-05-07 21:16 | 31.52569 | 74.40440 | 34886 ft | 530 kts | 143° |
| 2026-05-07 21:17 | 31.46752 | 74.45684 | 34888 ft | 530 kts | 143° |
| 2026-05-07 21:17 | 31.40892 | 74.50949 | 34888 ft | 529 kts | 143° |
| 2026-05-07 21:18 | 31.35060 | 74.56201 | 34888 ft | 528 kts | 142° |
| 2026-05-07 21:18 | 31.29623 | 74.61938 | 34893 ft | 528 kts | 136° |
| 2026-05-07 21:19 | 31.24313 | 74.67873 | 34888 ft | 528 kts | 136° |
| 2026-05-07 21:19 | 31.19012 | 74.73755 | 34889 ft | 528 kts | 137° |
| 2026-05-07 21:20 | 31.13655 | 74.79634 | 34890 ft | 527 kts | 137° |
| 2026-05-07 21:20 | 31.08292 | 74.85498 | 34902 ft | 527 kts | 137° |
| 2026-05-07 21:21 | 31.02974 | 74.91312 | 34904 ft | 526 kts | 137° |
| 2026-05-07 21:21 | 30.97638 | 74.97140 | 34910 ft | 526 kts | 137° |
| 2026-05-07 21:22 | 30.92423 | 75.02827 | 34908 ft | 527 kts | 137° |
| 2026-05-07 21:22 | 30.87056 | 75.08668 | 34910 ft | 528 kts | 137° |
| 2026-05-07 21:23 | 30.81736 | 75.14587 | 34906 ft | 528 kts | 133° |
| 2026-05-07 21:23 | 30.77202 | 75.21258 | 34891 ft | 529 kts | 123° |
| 2026-05-07 21:24 | 30.73186 | 75.28435 | 34893 ft | 529 kts | 123° |
| 2026-05-07 21:24 | 30.69166 | 75.35619 | 34887 ft | 529 kts | 123° |
| 2026-05-07 21:25 | 30.65137 | 75.42731 | 34888 ft | 529 kts | 123° |
| 2026-05-07 21:25 | 30.61057 | 75.49878 | 34890 ft | 529 kts | 123° |
| 2026-05-07 21:26 | 30.56988 | 75.56981 | 34887 ft | 530 kts | 123° |
| 2026-05-07 21:26 | 30.52899 | 75.64106 | 34890 ft | 531 kts | 124° |
| 2026-05-07 21:27 | 30.48796 | 75.71244 | 34890 ft | 531 kts | 124° |
| 2026-05-07 21:27 | 30.44689 | 75.78387 | 34891 ft | 531 kts | 124° |
| 2026-05-07 21:28 | 30.40597 | 75.85483 | 34887 ft | 533 kts | 124° |
| 2026-05-07 21:28 | 30.36463 | 75.92642 | 34893 ft | 534 kts | 124° |
| 2026-05-07 21:29 | 30.32351 | 75.99751 | 34884 ft | 534 kts | 124° |
| 2026-05-07 21:29 | 30.28298 | 76.06755 | 34896 ft | 534 kts | 124° |
| 2026-05-07 21:30 | 30.24178 | 76.13853 | 34901 ft | 534 kts | 124° |
| 2026-05-07 21:30 | 30.20027 | 76.20997 | 34896 ft | 533 kts | 124° |
| 2026-05-07 21:31 | 30.15869 | 76.28125 | 34899 ft | 533 kts | 124° |
| 2026-05-07 21:31 | 30.11740 | 76.35197 | 34899 ft | 533 kts | 124° |
| 2026-05-07 21:32 | 30.07588 | 76.42302 | 34897 ft | 533 kts | 124° |
| 2026-05-07 21:32 | 30.03426 | 76.49408 | 34897 ft | 532 kts | 124° |
| 2026-05-07 21:33 | 29.99305 | 76.56436 | 34896 ft | 532 kts | 124° |
| 2026-05-07 21:33 | 29.95150 | 76.63506 | 34891 ft | 532 kts | 124° |
| 2026-05-07 21:34 | 29.91003 | 76.70548 | 34905 ft | 532 kts | 124° |
| 2026-05-07 21:34 | 29.86834 | 76.77620 | 34912 ft | 533 kts | 124° |
| 2026-05-07 21:35 | 29.82651 | 76.84706 | 34912 ft | 534 kts | 124° |
| 2026-05-07 21:35 | 29.78484 | 76.91751 | 34927 ft | 535 kts | 125° |
| 2026-05-07 21:36 | 29.74282 | 76.98833 | 34926 ft | 535 kts | 125° |
| 2026-05-07 21:36 | 29.70179 | 77.05738 | 34940 ft | 534 kts | 125° |
| 2026-05-07 21:37 | 29.65997 | 77.12773 | 34931 ft | 534 kts | 125° |
| 2026-05-07 21:37 | 29.61805 | 77.19813 | 34943 ft | 533 kts | 125° |
| 2026-05-07 21:38 | 29.57626 | 77.26812 | 34932 ft | 532 kts | 125° |
| 2026-05-07 21:38 | 29.54142 | 77.32641 | 34933 ft | 531 kts | 125° |
| 2026-05-07 21:39 | 29.49266 | 77.40782 | 34934 ft | 530 kts | 125° |
| 2026-05-07 21:39 | 29.45788 | 77.46580 | 34932 ft | 529 kts | 125° |
| 2026-05-07 21:40 | 29.40919 | 77.54680 | 34938 ft | 529 kts | 126° |
| 2026-05-07 21:40 | 29.37446 | 77.60456 | 34929 ft | 529 kts | 126° |
| 2026-05-07 21:41 | 29.33266 | 77.67400 | 34913 ft | 529 kts | 126° |
| 2026-05-07 21:41 | 29.29068 | 77.74342 | 34906 ft | 529 kts | 126° |
| 2026-05-07 21:42 | 29.24877 | 77.81271 | 34904 ft | 530 kts | 126° |
| 2026-05-07 21:42 | 29.20691 | 77.88183 | 34897 ft | 530 kts | 126° |
| 2026-05-07 21:43 | 29.16472 | 77.95136 | 34899 ft | 532 kts | 126° |
| 2026-05-07 21:43 | 29.12335 | 78.01942 | 34900 ft | 532 kts | 126° |
| 2026-05-07 21:44 | 29.08126 | 78.08856 | 34912 ft | 532 kts | 126° |
| 2026-05-07 21:44 | 29.03890 | 78.15805 | 34905 ft | 532 kts | 126° |
| 2026-05-07 21:45 | 28.99657 | 78.22731 | 34905 ft | 531 kts | 126° |
| 2026-05-07 21:45 | 28.95443 | 78.29617 | 34908 ft | 531 kts | 126° |
| 2026-05-07 21:46 | 28.91197 | 78.36547 | 34903 ft | 532 kts | 127° |
| 2026-05-07 21:46 | 28.86947 | 78.43472 | 34909 ft | 532 kts | 127° |
| 2026-05-07 21:47 | 28.82719 | 78.50349 | 34907 ft | 533 kts | 127° |
| 2026-05-07 21:47 | 28.78458 | 78.57269 | 34908 ft | 533 kts | 127° |
| 2026-05-07 21:48 | 28.74179 | 78.64204 | 34903 ft | 534 kts | 127° |
| 2026-05-07 21:48 | 28.69918 | 78.71097 | 34896 ft | 534 kts | 127° |
| 2026-05-07 21:49 | 28.65620 | 78.78041 | 34900 ft | 535 kts | 127° |
| 2026-05-07 21:49 | 28.61328 | 78.84966 | 34896 ft | 534 kts | 127° |
| 2026-05-07 21:50 | 28.57060 | 78.91844 | 34900 ft | 534 kts | 127° |
| 2026-05-07 21:50 | 28.52763 | 78.98744 | 34897 ft | 534 kts | 127° |
| 2026-05-07 21:51 | 28.48561 | 79.05490 | 34899 ft | 534 kts | 127° |
| 2026-05-07 21:51 | 28.44258 | 79.12386 | 34898 ft | 534 kts | 127° |
| 2026-05-07 21:52 | 28.39976 | 79.19236 | 34900 ft | 534 kts | 128° |
| 2026-05-07 21:52 | 28.35673 | 79.26112 | 34898 ft | 534 kts | 128° |
| 2026-05-07 21:53 | 28.31357 | 79.32989 | 34905 ft | 534 kts | 128° |
| 2026-05-07 21:53 | 28.27077 | 79.39811 | 34911 ft | 534 kts | 128° |
| 2026-05-07 21:54 | 28.22752 | 79.46688 | 34909 ft | 535 kts | 128° |
| 2026-05-07 21:54 | 28.18412 | 79.53573 | 34908 ft | 535 kts | 128° |
| 2026-05-07 21:55 | 28.14215 | 79.60227 | 34907 ft | 536 kts | 128° |
| 2026-05-07 21:55 | 28.09871 | 79.67101 | 34908 ft | 537 kts | 128° |
| 2026-05-07 21:56 | 28.05542 | 79.73938 | 34908 ft | 537 kts | 128° |
| 2026-05-07 21:56 | 28.01175 | 79.80824 | 34905 ft | 537 kts | 129° |
| 2026-05-07 21:57 | 27.96848 | 79.87646 | 34907 ft | 537 kts | 129° |
| 2026-05-07 21:57 | 27.92472 | 79.94516 | 34906 ft | 537 kts | 129° |
| 2026-05-07 21:58 | 27.88213 | 80.01198 | 34909 ft | 537 kts | 129° |
| 2026-05-07 21:58 | 27.83838 | 80.08053 | 34904 ft | 537 kts | 129° |
| 2026-05-07 21:59 | 27.79460 | 80.14908 | 34909 ft | 537 kts | 129° |
| 2026-05-07 21:59 | 27.75101 | 80.21721 | 34907 ft | 537 kts | 129° |
| 2026-05-07 22:00 | 27.70716 | 80.28561 | 34917 ft | 537 kts | 129° |
| 2026-05-07 22:00 | 27.66325 | 80.35398 | 34919 ft | 537 kts | 129° |
| 2026-05-07 22:01 | 27.61963 | 80.42188 | 34915 ft | 537 kts | 129° |
| 2026-05-07 22:01 | 27.57559 | 80.49028 | 34918 ft | 537 kts | 129° |
| 2026-05-07 22:02 | 27.53150 | 80.55857 | 34915 ft | 538 kts | 129° |
| 2026-05-07 22:02 | 27.48775 | 80.62630 | 34920 ft | 537 kts | 129° |
| 2026-05-07 22:03 | 27.44368 | 80.69441 | 34924 ft | 537 kts | 129° |
| 2026-05-07 22:03 | 27.39982 | 80.76207 | 34935 ft | 536 kts | 130° |
| 2026-05-07 22:04 | 27.35579 | 80.82991 | 34955 ft | 536 kts | 130° |
| 2026-05-07 22:04 | 27.31179 | 80.89760 | 34961 ft | 536 kts | 130° |
| 2026-05-07 22:05 | 27.26768 | 80.96534 | 34965 ft | 536 kts | 130° |
| 2026-05-07 22:05 | 27.22479 | 81.03112 | 34964 ft | 537 kts | 130° |
| 2026-05-07 22:06 | 27.18056 | 81.09882 | 34961 ft | 537 kts | 130° |
| 2026-05-07 22:06 | 27.13633 | 81.16647 | 34963 ft | 537 kts | 130° |
| 2026-05-07 22:07 | 27.09227 | 81.23378 | 34949 ft | 537 kts | 130° |
| 2026-05-07 22:07 | 27.04791 | 81.30133 | 34945 ft | 537 kts | 130° |
| 2026-05-07 22:08 | 27.00350 | 81.36894 | 34953 ft | 537 kts | 130° |
| 2026-05-07 22:08 | 26.95948 | 81.43590 | 34955 ft | 537 kts | 130° |
| 2026-05-07 22:09 | 26.91540 | 81.50365 | 34950 ft | 536 kts | 129° |
| 2026-05-07 22:09 | 26.87299 | 81.57195 | 34951 ft | 536 kts | 129° |
| 2026-05-07 22:10 | 26.83057 | 81.64078 | 34960 ft | 536 kts | 129° |
| 2026-05-07 22:10 | 26.78797 | 81.70939 | 34951 ft | 536 kts | 129° |
| 2026-05-07 22:11 | 26.74513 | 81.77795 | 34959 ft | 537 kts | 129° |
| 2026-05-07 22:11 | 26.70241 | 81.84618 | 34955 ft | 538 kts | 129° |
| 2026-05-07 22:12 | 26.65933 | 81.91488 | 34950 ft | 539 kts | 129° |
| 2026-05-07 22:12 | 26.61648 | 81.98308 | 34957 ft | 539 kts | 130° |
| 2026-05-07 22:13 | 26.57427 | 82.05021 | 34957 ft | 539 kts | 130° |
| 2026-05-07 22:13 | 26.53134 | 82.11838 | 34955 ft | 538 kts | 130° |
| 2026-05-07 22:14 | 26.48809 | 82.18697 | 34957 ft | 538 kts | 130° |
| 2026-05-07 22:14 | 26.44514 | 82.25497 | 34964 ft | 537 kts | 130° |
| 2026-05-07 22:15 | 26.40207 | 82.32308 | 34961 ft | 537 kts | 130° |
| 2026-05-07 22:15 | 26.35893 | 82.39118 | 34963 ft | 536 kts | 130° |
| 2026-05-07 22:16 | 26.31583 | 82.45911 | 34961 ft | 536 kts | 130° |
| 2026-05-07 22:16 | 26.27291 | 82.52664 | 34959 ft | 535 kts | 130° |
| 2026-05-07 22:17 | 26.22980 | 82.59431 | 34964 ft | 535 kts | 130° |
| 2026-05-07 22:17 | 26.18662 | 82.66205 | 34964 ft | 536 kts | 130° |
| 2026-05-07 22:18 | 26.12206 | 82.76327 | 34962 ft | 536 kts | 130° |
| 2026-05-07 22:19 | 26.07875 | 82.83092 | 34964 ft | 536 kts | 131° |
| 2026-05-07 22:19 | 26.03571 | 82.89810 | 34965 ft | 537 kts | 131° |
| 2026-05-07 22:20 | 25.99239 | 82.96568 | 34961 ft | 537 kts | 131° |
| 2026-05-07 22:20 | 25.94991 | 83.03180 | 34962 ft | 536 kts | 131° |
| 2026-05-07 22:21 | 25.90676 | 83.09886 | 34966 ft | 536 kts | 131° |
| 2026-05-07 22:21 | 25.86333 | 83.16624 | 34964 ft | 536 kts | 131° |
| 2026-05-07 22:22 | 25.81977 | 83.23377 | 34967 ft | 536 kts | 131° |
| 2026-05-07 22:22 | 25.77653 | 83.30090 | 34963 ft | 537 kts | 131° |
| 2026-05-07 22:23 | 25.73381 | 83.36939 | 34963 ft | 538 kts | 130° |
| 2026-05-07 22:23 | 25.69181 | 83.43766 | 34963 ft | 538 kts | 130° |
| 2026-05-07 22:24 | 25.64936 | 83.50624 | 34960 ft | 538 kts | 131° |
| 2026-05-07 22:24 | 25.60690 | 83.57455 | 34951 ft | 537 kts | 131° |
| 2026-05-07 22:25 | 25.56465 | 83.64229 | 34950 ft | 537 kts | 131° |
| 2026-05-07 22:25 | 25.52212 | 83.71035 | 34957 ft | 537 kts | 131° |
| 2026-05-07 22:26 | 25.48673 | 83.76697 | 34951 ft | 536 kts | 131° |
| 2026-05-07 22:26 | 25.43728 | 83.84598 | 34945 ft | 536 kts | 131° |
| 2026-05-07 22:27 | 25.39468 | 83.91399 | 34940 ft | 536 kts | 131° |
| 2026-05-07 22:27 | 25.35233 | 83.98141 | 34937 ft | 536 kts | 131° |
| 2026-05-07 22:28 | 25.31768 | 84.03653 | 34940 ft | 535 kts | 131° |
| 2026-05-07 22:28 | 25.27514 | 84.10407 | 34934 ft | 535 kts | 131° |
| 2026-05-07 22:29 | 25.23274 | 84.17131 | 34938 ft | 536 kts | 131° |
| 2026-05-07 22:29 | 25.18999 | 84.23900 | 34941 ft | 536 kts | 131° |
| 2026-05-07 22:30 | 25.14753 | 84.30615 | 34930 ft | 536 kts | 132° |
| 2026-05-07 22:30 | 25.10475 | 84.37375 | 34933 ft | 536 kts | 132° |
| 2026-05-07 22:31 | 25.06194 | 84.44130 | 34937 ft | 536 kts | 132° |
| 2026-05-07 22:31 | 25.01938 | 84.50833 | 34925 ft | 536 kts | 132° |
| 2026-05-07 22:32 | 24.97663 | 84.57554 | 34925 ft | 536 kts | 132° |
| 2026-05-07 22:32 | 24.93373 | 84.64291 | 34924 ft | 536 kts | 132° |
| 2026-05-07 22:33 | 24.89085 | 84.71020 | 34925 ft | 536 kts | 132° |
| 2026-05-07 22:33 | 24.84823 | 84.77695 | 34928 ft | 536 kts | 132° |
| 2026-05-07 22:34 | 24.80520 | 84.84425 | 34926 ft | 537 kts | 132° |
| 2026-05-07 22:34 | 24.76223 | 84.91142 | 34924 ft | 536 kts | 132° |
| 2026-05-07 22:35 | 24.71937 | 84.97884 | 34927 ft | 538 kts | 131° |
| 2026-05-07 22:35 | 24.67862 | 85.04516 | 34925 ft | 539 kts | 131° |
| 2026-05-07 22:36 | 24.63680 | 85.11363 | 34927 ft | 539 kts | 131° |
| 2026-05-07 22:36 | 24.59492 | 85.18175 | 34926 ft | 539 kts | 131° |
| 2026-05-07 22:37 | 24.55288 | 85.24985 | 34922 ft | 539 kts | 131° |
| 2026-05-07 22:37 | 24.51073 | 85.31795 | 34934 ft | 539 kts | 131° |
| 2026-05-07 22:38 | 24.46842 | 85.38622 | 34922 ft | 539 kts | 131° |
| 2026-05-07 22:38 | 24.42635 | 85.45401 | 34917 ft | 540 kts | 131° |
| 2026-05-07 22:39 | 24.38375 | 85.52255 | 34913 ft | 540 kts | 131° |
| 2026-05-07 22:39 | 24.34168 | 85.59023 | 34915 ft | 541 kts | 131° |
| 2026-05-07 22:40 | 24.29921 | 85.65842 | 34917 ft | 541 kts | 131° |
| 2026-05-07 22:40 | 24.25685 | 85.72632 | 34919 ft | 541 kts | 131° |
| 2026-05-07 22:41 | 24.21428 | 85.79448 | 34918 ft | 541 kts | 131° |
| 2026-05-07 22:41 | 24.17171 | 85.86254 | 34916 ft | 541 kts | 131° |
| 2026-05-07 22:42 | 24.12907 | 85.93060 | 34920 ft | 541 kts | 131° |
| 2026-05-07 22:42 | 24.08664 | 85.99823 | 34917 ft | 541 kts | 131° |
| 2026-05-07 22:43 | 24.04484 | 86.06482 | 34921 ft | 541 kts | 131° |
| 2026-05-07 22:43 | 24.00241 | 86.13229 | 34915 ft | 541 kts | 131° |
| 2026-05-07 22:44 | 23.95976 | 86.20003 | 34917 ft | 541 kts | 131° |
| 2026-05-07 22:44 | 23.91702 | 86.26781 | 34918 ft | 540 kts | 132° |
| 2026-05-07 22:45 | 23.87451 | 86.33512 | 34922 ft | 541 kts | 131° |
| 2026-05-07 22:45 | 23.83175 | 86.40277 | 34917 ft | 540 kts | 132° |
| 2026-05-07 22:46 | 23.79033 | 86.47154 | 34913 ft | 543 kts | 128° |
| 2026-05-07 22:46 | 23.75124 | 86.54235 | 34921 ft | 543 kts | 127° |
| 2026-05-07 22:47 | 23.71234 | 86.61312 | 34921 ft | 543 kts | 128° |
| 2026-05-07 22:47 | 23.67344 | 86.68320 | 34915 ft | 542 kts | 128° |
| 2026-05-07 22:48 | 23.63415 | 86.75357 | 34919 ft | 542 kts | 128° |
| 2026-05-07 22:48 | 23.59494 | 86.82374 | 34914 ft | 540 kts | 128° |
| 2026-05-07 22:49 | 23.55607 | 86.89317 | 34910 ft | 539 kts | 128° |
| 2026-05-07 22:49 | 23.51690 | 86.96317 | 34922 ft | 538 kts | 128° |
| 2026-05-07 22:50 | 23.47892 | 87.03091 | 34919 ft | 538 kts | 128° |
| 2026-05-07 22:50 | 23.43990 | 87.10061 | 34917 ft | 537 kts | 128° |
| 2026-05-07 22:51 | 23.40101 | 87.17022 | 34918 ft | 537 kts | 128° |
| 2026-05-07 22:51 | 23.36228 | 87.23942 | 34916 ft | 536 kts | 128° |
| 2026-05-07 22:52 | 23.32339 | 87.30880 | 34915 ft | 536 kts | 128° |
| 2026-05-07 22:52 | 23.28465 | 87.37777 | 34918 ft | 535 kts | 128° |
| 2026-05-07 22:53 | 23.24573 | 87.44698 | 34915 ft | 534 kts | 128° |
| 2026-05-07 22:53 | 23.20712 | 87.51553 | 34916 ft | 534 kts | 128° |
| 2026-05-07 22:54 | 23.16819 | 87.58459 | 34916 ft | 534 kts | 128° |
| 2026-05-07 22:54 | 23.12932 | 87.65348 | 34916 ft | 534 kts | 128° |
| 2026-05-07 22:55 | 23.09066 | 87.72186 | 34915 ft | 534 kts | 128° |
| 2026-05-07 22:55 | 23.05174 | 87.79058 | 34918 ft | 534 kts | 128° |
| 2026-05-07 22:56 | 23.01287 | 87.85911 | 34917 ft | 534 kts | 127° |
| 2026-05-07 22:56 | 22.97398 | 87.92763 | 34915 ft | 533 kts | 128° |
| 2026-05-07 22:57 | 22.93501 | 87.99621 | 34920 ft | 533 kts | 127° |
| 2026-05-07 22:57 | 22.89679 | 88.06340 | 34931 ft | 533 kts | 127° |
| 2026-05-07 22:58 | 22.85798 | 88.13148 | 34925 ft | 533 kts | 127° |
| 2026-05-07 22:58 | 22.81893 | 88.19994 | 34925 ft | 533 kts | 127° |
| 2026-05-07 22:59 | 22.78122 | 88.26599 | 34923 ft | 533 kts | 127° |
| 2026-05-07 22:59 | 22.74228 | 88.33402 | 34921 ft | 533 kts | 127° |
| 2026-05-07 23:00 | 22.70309 | 88.40250 | 34915 ft | 533 kts | 127° |
| 2026-05-07 23:00 | 22.66347 | 88.46965 | 34915 ft | 529 kts | 130° |
| 2026-05-07 23:01 | 22.62075 | 88.53466 | 34920 ft | 528 kts | 131° |
| 2026-05-07 23:01 | 22.57799 | 88.59862 | 34915 ft | 528 kts | 131° |
| 2026-05-07 23:02 | 22.53513 | 88.66324 | 34918 ft | 528 kts | 131° |
| 2026-05-07 23:02 | 22.49242 | 88.72796 | 34919 ft | 528 kts | 131° |
| 2026-05-07 23:03 | 22.44988 | 88.79232 | 34915 ft | 529 kts | 131° |
| 2026-05-07 23:03 | 22.40706 | 88.85705 | 34917 ft | 529 kts | 131° |
| 2026-05-07 23:04 | 22.36416 | 88.92180 | 34917 ft | 530 kts | 131° |
| 2026-05-07 23:04 | 22.32117 | 88.98662 | 34919 ft | 530 kts | 131° |
| 2026-05-07 23:05 | 22.27984 | 89.04988 | 34914 ft | 531 kts | 129° |
| 2026-05-07 23:05 | 22.23888 | 89.11657 | 34913 ft | 532 kts | 128° |
| 2026-05-07 23:06 | 22.19828 | 89.18346 | 34906 ft | 531 kts | 128° |
| 2026-05-07 23:06 | 22.15771 | 89.24961 | 34907 ft | 531 kts | 129° |
| 2026-05-07 23:07 | 22.11655 | 89.31610 | 34913 ft | 531 kts | 129° |
| 2026-05-07 23:07 | 22.07566 | 89.38202 | 34918 ft | 532 kts | 129° |
| 2026-05-07 23:08 | 22.03449 | 89.44841 | 34915 ft | 531 kts | 129° |
| 2026-05-07 23:08 | 21.99357 | 89.51433 | 34919 ft | 532 kts | 129° |
| 2026-05-07 23:09 | 21.95238 | 89.58056 | 34915 ft | 532 kts | 128° |
| 2026-05-07 23:09 | 21.91112 | 89.64684 | 34916 ft | 531 kts | 129° |
| 2026-05-07 23:10 | 21.87010 | 89.71265 | 34918 ft | 531 kts | 129° |
| 2026-05-07 23:10 | 21.82907 | 89.77846 | 34915 ft | 530 kts | 129° |
| 2026-05-07 23:11 | 21.78789 | 89.84441 | 34918 ft | 530 kts | 129° |
| 2026-05-07 23:11 | 21.74669 | 89.91033 | 34917 ft | 531 kts | 129° |
| 2026-05-07 23:12 | 21.70539 | 89.97627 | 34920 ft | 532 kts | 129° |
| 2026-05-07 23:12 | 21.66517 | 90.04038 | 34917 ft | 532 kts | 129° |
| 2026-05-07 23:13 | 21.62368 | 90.10651 | 34917 ft | 532 kts | 129° |
| 2026-05-07 23:13 | 21.58249 | 90.17206 | 34918 ft | 532 kts | 129° |
| 2026-05-07 23:14 | 21.54108 | 90.23788 | 34916 ft | 531 kts | 129° |
| 2026-05-07 23:14 | 21.49958 | 90.30377 | 34918 ft | 530 kts | 129° |
| 2026-05-07 23:15 | 21.45845 | 90.36902 | 34916 ft | 530 kts | 129° |
| 2026-05-07 23:15 | 21.42405 | 90.42350 | 34918 ft | 530 kts | 129° |
| 2026-05-07 23:16 | 21.38265 | 90.48901 | 34912 ft | 529 kts | 129° |
| 2026-05-07 23:16 | 21.34124 | 90.55450 | 34919 ft | 529 kts | 128° |
| 2026-05-07 23:17 | 21.29312 | 90.63055 | 34917 ft | 529 kts | 129° |
| 2026-05-07 23:17 | 21.25887 | 90.68462 | 34917 ft | 529 kts | 129° |
| 2026-05-07 23:18 | 21.21740 | 90.75002 | 34915 ft | 528 kts | 128° |
| 2026-05-07 23:18 | 21.17627 | 90.81489 | 34917 ft | 528 kts | 128° |
| 2026-05-07 23:19 | 21.13481 | 90.88019 | 34920 ft | 528 kts | 128° |
| 2026-05-07 23:19 | 21.09333 | 90.94537 | 34915 ft | 528 kts | 128° |
| 2026-05-07 23:20 | 21.05302 | 91.00861 | 34915 ft | 528 kts | 128° |
| 2026-05-07 23:20 | 21.01161 | 91.07364 | 34919 ft | 528 kts | 128° |
| 2026-05-07 23:21 | 20.97041 | 91.13825 | 34918 ft | 529 kts | 128° |
| 2026-05-07 23:21 | 20.92887 | 91.20325 | 34917 ft | 528 kts | 128° |
| 2026-05-07 23:22 | 20.88725 | 91.26829 | 34916 ft | 529 kts | 128° |
| 2026-05-07 23:22 | 20.84563 | 91.33330 | 34917 ft | 528 kts | 129° |
| 2026-05-07 23:23 | 20.80422 | 91.39790 | 34918 ft | 528 kts | 128° |
| 2026-05-07 23:23 | 20.76261 | 91.46274 | 34916 ft | 528 kts | 128° |
| 2026-05-07 23:24 | 20.72125 | 91.52716 | 34915 ft | 527 kts | 128° |
| 2026-05-07 23:24 | 20.67968 | 91.59181 | 34917 ft | 527 kts | 128° |
| 2026-05-07 23:25 | 20.63833 | 91.65600 | 34917 ft | 527 kts | 129° |
| 2026-05-07 23:25 | 20.59674 | 91.72049 | 34916 ft | 527 kts | 128° |
| 2026-05-07 23:26 | 20.55512 | 91.78493 | 34914 ft | 526 kts | 128° |
| 2026-05-07 23:26 | 20.51379 | 91.84894 | 34919 ft | 526 kts | 128° |
| 2026-05-07 23:27 | 20.45139 | 91.94543 | 34925 ft | 525 kts | 129° |
| 2026-05-07 23:27 | 20.41096 | 92.00781 | 34928 ft | 526 kts | 129° |
| 2026-05-07 23:28 | 20.36892 | 92.07168 | 34918 ft | 526 kts | 129° |
| 2026-05-07 23:28 | 20.32679 | 92.13525 | 34919 ft | 527 kts | 129° |
| 2026-05-07 23:29 | 20.28440 | 92.19926 | 34914 ft | 527 kts | 129° |
| 2026-05-07 23:29 | 20.24203 | 92.26327 | 34918 ft | 527 kts | 129° |
| 2026-05-07 23:30 | 20.19987 | 92.32687 | 34918 ft | 528 kts | 129° |
| 2026-05-07 23:30 | 20.15753 | 92.39072 | 34915 ft | 527 kts | 129° |
| 2026-05-07 23:31 | 20.11538 | 92.45423 | 34918 ft | 527 kts | 129° |
| 2026-05-07 23:31 | 20.07296 | 92.51807 | 34916 ft | 527 kts | 129° |
| 2026-05-07 23:32 | 20.03070 | 92.58158 | 34916 ft | 526 kts | 129° |
| 2026-05-07 23:32 | 19.98863 | 92.64474 | 34917 ft | 526 kts | 129° |
| 2026-05-07 23:33 | 19.94623 | 92.70831 | 34917 ft | 526 kts | 129° |
| 2026-05-07 23:33 | 19.90390 | 92.77172 | 34916 ft | 525 kts | 129° |
| 2026-05-07 23:34 | 19.86176 | 92.83482 | 34916 ft | 525 kts | 129° |
| 2026-05-07 23:34 | 19.81938 | 92.89819 | 34908 ft | 525 kts | 129° |
| 2026-05-07 23:35 | 19.77725 | 92.96109 | 34907 ft | 525 kts | 129° |
| 2026-05-07 23:35 | 19.73576 | 93.02292 | 34909 ft | 525 kts | 129° |
| 2026-05-07 23:36 | 19.69334 | 93.08617 | 34907 ft | 525 kts | 129° |
| 2026-05-07 23:36 | 19.65115 | 93.14899 | 34909 ft | 525 kts | 129° |
| 2026-05-07 23:37 | 19.60863 | 93.21224 | 34909 ft | 526 kts | 129° |
| 2026-05-07 23:37 | 19.56636 | 93.27506 | 34905 ft | 525 kts | 129° |
| 2026-05-07 23:38 | 19.52382 | 93.33819 | 34908 ft | 525 kts | 129° |
| 2026-05-07 23:38 | 19.48121 | 93.40132 | 34908 ft | 525 kts | 129° |
| 2026-05-07 23:39 | 19.43894 | 93.46392 | 34906 ft | 525 kts | 129° |
| 2026-05-07 23:39 | 19.39630 | 93.52705 | 34910 ft | 525 kts | 129° |
| 2026-05-07 23:40 | 19.35371 | 93.59003 | 34910 ft | 525 kts | 129° |
| 2026-05-07 23:40 | 19.31127 | 93.65264 | 34902 ft | 526 kts | 129° |
| 2026-05-07 23:41 | 19.26861 | 93.71552 | 34898 ft | 525 kts | 129° |
| 2026-05-07 23:41 | 19.22582 | 93.77860 | 34896 ft | 525 kts | 129° |
| 2026-05-07 23:42 | 19.18343 | 93.84101 | 34904 ft | 525 kts | 129° |
| 2026-05-07 23:42 | 19.14076 | 93.90377 | 34896 ft | 524 kts | 129° |
| 2026-05-07 23:43 | 19.09834 | 93.96608 | 34898 ft | 524 kts | 129° |
| 2026-05-07 23:43 | 19.05670 | 94.02713 | 34897 ft | 524 kts | 128° |
| 2026-05-07 23:44 | 19.01414 | 94.08953 | 34897 ft | 523 kts | 128° |
| 2026-05-07 23:44 | 18.97174 | 94.15167 | 34902 ft | 522 kts | 128° |
| 2026-05-07 23:45 | 18.92918 | 94.21392 | 34900 ft | 522 kts | 128° |
| 2026-05-07 23:45 | 18.88662 | 94.27611 | 34901 ft | 522 kts | 128° |
| 2026-05-07 23:46 | 18.84400 | 94.33833 | 34898 ft | 522 kts | 128° |
| 2026-05-07 23:46 | 18.80162 | 94.40017 | 34890 ft | 521 kts | 128° |
| 2026-05-07 23:47 | 18.75902 | 94.46223 | 34891 ft | 521 kts | 128° |
| 2026-05-07 23:47 | 18.71649 | 94.52417 | 34889 ft | 521 kts | 128° |
| 2026-05-07 23:48 | 18.67413 | 94.58581 | 34885 ft | 521 kts | 128° |
| 2026-05-07 23:48 | 18.63152 | 94.64771 | 34896 ft | 520 kts | 128° |
| 2026-05-07 23:49 | 18.58890 | 94.70962 | 34896 ft | 520 kts | 128° |
| 2026-05-07 23:49 | 18.54714 | 94.77153 | 34888 ft | 521 kts | 127° |
| 2026-05-07 23:50 | 18.50606 | 94.83468 | 34875 ft | 521 kts | 126° |
| 2026-05-07 23:50 | 18.46532 | 94.89721 | 34888 ft | 520 kts | 127° |
| 2026-05-07 23:51 | 18.42409 | 94.96006 | 34888 ft | 520 kts | 127° |
| 2026-05-07 23:51 | 18.38376 | 95.02134 | 34890 ft | 521 kts | 127° |
| 2026-05-07 23:52 | 18.34267 | 95.08375 | 34891 ft | 521 kts | 127° |
| 2026-05-07 23:52 | 18.30120 | 95.14666 | 34889 ft | 521 kts | 127° |
| 2026-05-07 23:53 | 18.25887 | 95.20800 | 34889 ft | 521 kts | 129° |
| 2026-05-07 23:53 | 18.21507 | 95.26882 | 34891 ft | 521 kts | 129° |
| 2026-05-07 23:54 | 18.17133 | 95.32977 | 34887 ft | 521 kts | 128° |
| 2026-05-07 23:54 | 18.12780 | 95.39082 | 34889 ft | 520 kts | 128° |
| 2026-05-07 23:55 | 18.08473 | 95.45139 | 34889 ft | 520 kts | 128° |
| 2026-05-07 23:55 | 18.04126 | 95.51247 | 34890 ft | 519 kts | 128° |
| 2026-05-07 23:56 | 17.99827 | 95.57277 | 34887 ft | 519 kts | 128° |
| 2026-05-07 23:56 | 17.95491 | 95.63357 | 34891 ft | 518 kts | 128° |
| 2026-05-07 23:57 | 17.91188 | 95.69381 | 34888 ft | 518 kts | 128° |
| 2026-05-07 23:57 | 17.86857 | 95.75441 | 34888 ft | 518 kts | 128° |
| 2026-05-07 23:58 | 17.82523 | 95.81499 | 34890 ft | 518 kts | 128° |
| 2026-05-07 23:58 | 17.78208 | 95.87524 | 34890 ft | 518 kts | 128° |
| 2026-05-07 23:59 | 17.73870 | 95.93578 | 34888 ft | 518 kts | 128° |
| 2026-05-07 23:59 | 17.69548 | 95.99604 | 34887 ft | 518 kts | 128° |
| 2026-05-08 00:00 | 17.65305 | 96.05513 | 34890 ft | 518 kts | 128° |
| 2026-05-08 00:00 | 17.60988 | 96.11521 | 34888 ft | 518 kts | 128° |
| 2026-05-08 00:01 | 17.57384 | 96.16532 | 34888 ft | 518 kts | 128° |
| 2026-05-08 00:01 | 17.52322 | 96.23562 | 34891 ft | 518 kts | 128° |
| 2026-05-08 00:02 | 17.48684 | 96.28614 | 34888 ft | 517 kts | 128° |
| 2026-05-08 00:02 | 17.43637 | 96.35610 | 34890 ft | 517 kts | 128° |
| 2026-05-08 00:03 | 17.40026 | 96.40609 | 34890 ft | 516 kts | 128° |
| 2026-05-08 00:03 | 17.34979 | 96.47600 | 34889 ft | 516 kts | 128° |
| 2026-05-08 00:04 | 17.31375 | 96.52586 | 34888 ft | 516 kts | 128° |
| 2026-05-08 00:04 | 17.26990 | 96.58545 | 34888 ft | 515 kts | 128° |
| 2026-05-08 00:05 | 17.22618 | 96.64439 | 34888 ft | 514 kts | 128° |
| 2026-05-08 00:05 | 17.18231 | 96.70362 | 34889 ft | 513 kts | 128° |
| 2026-05-08 00:06 | 17.13872 | 96.76249 | 34890 ft | 513 kts | 128° |
| 2026-05-08 00:06 | 17.09496 | 96.82155 | 34888 ft | 513 kts | 128° |
| 2026-05-08 00:07 | 17.05123 | 96.88056 | 34889 ft | 512 kts | 128° |
| 2026-05-08 00:07 | 17.00790 | 96.93902 | 34888 ft | 512 kts | 128° |
| 2026-05-08 00:08 | 16.96432 | 96.99774 | 34889 ft | 512 kts | 128° |
| 2026-05-08 00:08 | 16.92151 | 97.05532 | 34889 ft | 512 kts | 128° |
| 2026-05-08 00:09 | 16.87810 | 97.11368 | 34888 ft | 511 kts | 128° |
| 2026-05-08 00:09 | 16.83441 | 97.17232 | 34887 ft | 511 kts | 128° |
| 2026-05-08 00:10 | 16.79072 | 97.23101 | 34890 ft | 511 kts | 128° |
| 2026-05-08 00:10 | 16.74734 | 97.28921 | 34889 ft | 511 kts | 128° |
| 2026-05-08 00:11 | 16.70358 | 97.34786 | 34884 ft | 511 kts | 128° |
| 2026-05-08 00:11 | 16.66001 | 97.40619 | 34881 ft | 511 kts | 128° |
| 2026-05-08 00:12 | 16.61623 | 97.46475 | 34887 ft | 510 kts | 128° |
| 2026-05-08 00:12 | 16.57257 | 97.52313 | 34887 ft | 510 kts | 128° |
| 2026-05-08 00:13 | 16.52888 | 97.58147 | 34890 ft | 510 kts | 128° |
| 2026-05-08 00:13 | 16.48544 | 97.63948 | 34888 ft | 510 kts | 128° |
| 2026-05-08 00:14 | 16.44164 | 97.69786 | 34889 ft | 510 kts | 128° |
| 2026-05-08 00:14 | 16.39820 | 97.75576 | 34891 ft | 509 kts | 128° |
| 2026-05-08 00:15 | 16.35181 | 97.81159 | 34889 ft | 509 kts | 136° |
| 2026-05-08 00:15 | 16.29869 | 97.85969 | 34899 ft | 508 kts | 140° |
| 2026-05-08 00:16 | 16.24468 | 97.90738 | 34887 ft | 508 kts | 140° |
| 2026-05-08 00:16 | 16.19118 | 97.95513 | 34890 ft | 508 kts | 139° |
| 2026-05-08 00:17 | 16.13911 | 98.00195 | 34889 ft | 508 kts | 139° |
| 2026-05-08 00:17 | 16.08543 | 98.05024 | 34889 ft | 508 kts | 139° |
| 2026-05-08 00:18 | 16.03222 | 98.09806 | 34889 ft | 508 kts | 139° |
| 2026-05-08 00:18 | 15.97882 | 98.14598 | 34888 ft | 508 kts | 139° |
| 2026-05-08 00:19 | 15.92522 | 98.19406 | 34888 ft | 508 kts | 139° |
| 2026-05-08 00:19 | 15.87192 | 98.24180 | 34889 ft | 508 kts | 139° |
| 2026-05-08 00:20 | 15.81832 | 98.28980 | 34888 ft | 507 kts | 139° |
| 2026-05-08 00:20 | 15.76485 | 98.33764 | 34890 ft | 508 kts | 139° |
| 2026-05-08 00:21 | 15.71152 | 98.38534 | 34892 ft | 508 kts | 139° |
| 2026-05-08 00:21 | 15.65780 | 98.43334 | 34887 ft | 508 kts | 139° |
| 2026-05-08 00:22 | 15.60452 | 98.48091 | 34890 ft | 507 kts | 139° |
| 2026-05-08 00:22 | 15.55092 | 98.52875 | 34889 ft | 507 kts | 139° |
| 2026-05-08 00:23 | 15.49734 | 98.57663 | 34883 ft | 507 kts | 138° |
| 2026-05-08 00:23 | 15.44923 | 98.62946 | 34878 ft | 506 kts | 129° |
| 2026-05-08 00:24 | 15.40520 | 98.68661 | 34880 ft | 506 kts | 128° |
| 2026-05-08 00:24 | 15.36140 | 98.74343 | 34877 ft | 506 kts | 128° |
| 2026-05-08 00:25 | 15.31708 | 98.80025 | 34883 ft | 505 kts | 129° |
| 2026-05-08 00:25 | 15.27272 | 98.85681 | 34886 ft | 506 kts | 129° |
| 2026-05-08 00:26 | 15.22832 | 98.91336 | 34884 ft | 506 kts | 129° |
| 2026-05-08 00:26 | 15.18417 | 98.96959 | 34874 ft | 506 kts | 129° |
| 2026-05-08 00:27 | 15.14070 | 99.02495 | 34876 ft | 505 kts | 129° |
| 2026-05-08 00:27 | 15.09629 | 99.08145 | 34877 ft | 505 kts | 129° |
| 2026-05-08 00:28 | 15.05221 | 99.13750 | 34881 ft | 504 kts | 129° |
| 2026-05-08 00:28 | 15.00786 | 99.19389 | 34875 ft | 504 kts | 129° |
| 2026-05-08 00:29 | 14.96398 | 99.24957 | 34780 ft | 501 kts | 129° |
| 2026-05-08 00:29 | 14.94180 | 99.27767 | 34486 ft | 501 kts | 129° |
| 2026-05-08 00:29 | 14.91970 | 99.30573 | 34115 ft | 502 kts | 129° |
| 2026-05-08 00:30 | 14.89782 | 99.33351 | 33706 ft | 504 kts | 129° |
| 2026-05-08 00:30 | 14.87549 | 99.36182 | 33298 ft | 506 kts | 129° |
| 2026-05-08 00:30 | 14.85341 | 99.38979 | 32895 ft | 507 kts | 129° |
| 2026-05-08 00:30 | 14.84585 | 99.39935 | 32741 ft | 508 kts | 129° |
| 2026-05-08 00:31 | 14.80853 | 99.44645 | 31977 ft | 510 kts | 128° |
| 2026-05-08 00:31 | 14.78598 | 99.47494 | 31008 ft | 514 kts | 128° |
| 2026-05-08 00:31 | 14.76328 | 99.50355 | 30223 ft | 511 kts | 128° |
| 2026-05-08 00:31 | 14.74092 | 99.53175 | 29552 ft | 504 kts | 128° |
| 2026-05-08 00:32 | 14.71880 | 99.55965 | 28867 ft | 498 kts | 128° |
| 2026-05-08 00:32 | 14.69688 | 99.58728 | 28173 ft | 493 kts | 128° |
| 2026-05-08 00:32 | 14.67546 | 99.61427 | 27484 ft | 489 kts | 128° |
| 2026-05-08 00:32 | 14.65400 | 99.64133 | 26794 ft | 484 kts | 128° |
| 2026-05-08 00:33 | 14.63275 | 99.66811 | 26095 ft | 480 kts | 128° |
| 2026-05-08 00:33 | 14.61168 | 99.69463 | 25400 ft | 475 kts | 128° |
| 2026-05-08 00:33 | 14.59075 | 99.72095 | 24701 ft | 471 kts | 128° |
| 2026-05-08 00:33 | 14.57000 | 99.74704 | 24003 ft | 467 kts | 128° |
| 2026-05-08 00:34 | 14.54967 | 99.77261 | 23289 ft | 452 kts | 128° |
| 2026-05-08 00:34 | 14.53013 | 99.79721 | 22599 ft | 445 kts | 128° |
| 2026-05-08 00:34 | 14.51048 | 99.82193 | 21906 ft | 443 kts | 128° |
| 2026-05-08 00:34 | 14.49098 | 99.84645 | 21216 ft | 441 kts | 129° |
| 2026-05-08 00:35 | 14.47161 | 99.87080 | 20525 ft | 438 kts | 129° |
| 2026-05-08 00:35 | 14.45240 | 99.89517 | 19928 ft | 432 kts | 126° |
| 2026-05-08 00:35 | 14.43766 | 99.92185 | 19305 ft | 426 kts | 110° |
| 2026-05-08 00:35 | 14.43043 | 99.95102 | 18744 ft | 416 kts | 102° |
| 2026-05-08 00:36 | 14.42418 | 99.97958 | 18336 ft | 408 kts | 103° |
| 2026-05-08 00:36 | 14.41788 | 100.00634 | 18204 ft | 394 kts | 104° |
| 2026-05-08 00:36 | 14.41128 | 100.03334 | 18003 ft | 382 kts | 104° |
| 2026-05-08 00:36 | 14.40483 | 100.05948 | 17845 ft | 370 kts | 104° |
| 2026-05-08 00:37 | 14.39848 | 100.08498 | 17575 ft | 363 kts | 104° |
| 2026-05-08 00:37 | 14.39224 | 100.10991 | 17326 ft | 355 kts | 104° |
| 2026-05-08 00:37 | 14.38610 | 100.13443 | 17049 ft | 352 kts | 104° |
| 2026-05-08 00:38 | 14.37393 | 100.18335 | 16706 ft | 349 kts | 104° |
| 2026-05-08 00:38 | 14.36836 | 100.20725 | 16661 ft | 345 kts | 103° |
| 2026-05-08 00:38 | 14.36331 | 100.23138 | 16548 ft | 342 kts | 101° |
| 2026-05-08 00:38 | 14.35927 | 100.25214 | 16126 ft | 349 kts | 101° |
| 2026-05-08 00:39 | 14.35504 | 100.27455 | 15268 ft | 369 kts | 101° |
| 2026-05-08 00:39 | 14.34979 | 100.30124 | 14360 ft | 387 kts | 101° |
| 2026-05-08 00:39 | 14.34393 | 100.32851 | 14057 ft | 386 kts | 102° |
| 2026-05-08 00:40 | 14.33775 | 100.35482 | 14357 ft | 367 kts | 103° |
| 2026-05-08 00:40 | 14.33144 | 100.37925 | 14700 ft | 349 kts | 105° |
| 2026-05-08 00:40 | 14.32475 | 100.40307 | 14633 ft | 345 kts | 106° |
| 2026-05-08 00:40 | 14.31769 | 100.42701 | 14057 ft | 355 kts | 106° |
| 2026-05-08 00:41 | 14.31022 | 100.45184 | 13328 ft | 370 kts | 106° |
| 2026-05-08 00:41 | 14.30240 | 100.47732 | 12963 ft | 372 kts | 107° |
| 2026-05-08 00:41 | 14.29455 | 100.50233 | 13137 ft | 359 kts | 107° |
| 2026-05-08 00:41 | 14.28703 | 100.52638 | 13337 ft | 346 kts | 107° |
| 2026-05-08 00:42 | 14.27980 | 100.54959 | 13209 ft | 344 kts | 107° |
| 2026-05-08 00:42 | 14.27240 | 100.57332 | 12731 ft | 352 kts | 107° |
| 2026-05-08 00:42 | 14.26488 | 100.59771 | 12173 ft | 362 kts | 107° |
| 2026-05-08 00:42 | 14.25689 | 100.62269 | 11818 ft | 364 kts | 107° |
| 2026-05-08 00:43 | 14.24869 | 100.64699 | 11807 ft | 357 kts | 108° |
| 2026-05-08 00:43 | 14.24006 | 100.67059 | 12009 ft | 343 kts | 110° |
| 2026-05-08 00:43 | 14.23123 | 100.69285 | 12134 ft | 334 kts | 111° |
| 2026-05-08 00:43 | 14.22198 | 100.71491 | 11797 ft | 339 kts | 112° |
| 2026-05-08 00:44 | 14.21195 | 100.73752 | 11145 ft | 354 kts | 114° |
| 2026-05-08 00:44 | 14.20097 | 100.76066 | 10695 ft | 361 kts | 116° |
| 2026-05-08 00:44 | 14.18944 | 100.78332 | 10755 ft | 351 kts | 117° |
| 2026-05-08 00:44 | 14.17759 | 100.80493 | 10897 ft | 340 kts | 119° |
| 2026-05-08 00:45 | 14.16559 | 100.82539 | 10811 ft | 337 kts | 121° |
| 2026-05-08 00:45 | 14.15289 | 100.84587 | 10525 ft | 341 kts | 122° |
| 2026-05-08 00:45 | 14.13957 | 100.86625 | 10249 ft | 344 kts | 124° |
| 2026-05-08 00:45 | 14.12557 | 100.88643 | 9925 ft | 347 kts | 125° |
| 2026-05-08 00:46 | 14.11099 | 100.90636 | 9678 ft | 349 kts | 127° |
| 2026-05-08 00:46 | 14.09593 | 100.92591 | 9535 ft | 346 kts | 128° |
| 2026-05-08 00:46 | 14.08029 | 100.94463 | 9436 ft | 342 kts | 132° |
| 2026-05-08 00:46 | 14.06341 | 100.96167 | 9435 ft | 336 kts | 137° |
| 2026-05-08 00:47 | 14.04533 | 100.97699 | 9236 ft | 337 kts | 142° |
| 2026-05-08 00:47 | 14.02630 | 100.99096 | 8908 ft | 343 kts | 144° |
| 2026-05-08 00:47 | 14.00596 | 101.00401 | 8617 ft | 346 kts | 152° |
| 2026-05-08 00:47 | 13.98334 | 101.01282 | 8307 ft | 349 kts | 165° |
| 2026-05-08 00:48 | 13.95911 | 101.01618 | 7962 ft | 354 kts | 179° |
| 2026-05-08 00:48 | 13.93441 | 101.01327 | 7716 ft | 357 kts | 192° |
| 2026-05-08 00:48 | 13.91125 | 101.00489 | 7804 ft | 348 kts | 204° |
| 2026-05-08 00:48 | 13.89078 | 100.99276 | 7884 ft | 341 kts | 214° |
| 2026-05-08 00:49 | 13.87250 | 100.97741 | 7770 ft | 340 kts | 224° |
| 2026-05-08 00:49 | 13.85711 | 100.95871 | 7460 ft | 345 kts | 234° |
| 2026-05-08 00:49 | 13.84870 | 100.94470 | 7227 ft | 350 kts | 241° |
| 2026-05-08 00:49 | 13.83645 | 100.91399 | 6758 ft | 343 kts | 253° |
| 2026-05-08 00:50 | 13.83147 | 100.88998 | 6100 ft | 346 kts | 262° |
| 2026-05-08 00:50 | 13.82966 | 100.87362 | 5673 ft | 347 kts | 263° |
| 2026-05-08 00:50 | 13.82680 | 100.84110 | 5260 ft | 338 kts | 265° |
| 2026-05-08 00:50 | 13.82549 | 100.82525 | 5056 ft | 333 kts | 261° |
| 2026-05-08 00:51 | 13.81834 | 100.80282 | 4111 ft | 334 kts | 240° |
| 2026-05-08 00:51 | 13.80438 | 100.78323 | 1977 ft | 347 kts | 226° |
| 2026-05-08 00:51 | 13.78552 | 100.76697 | 300 ft | 339 kts | 214° |
| 2026-05-08 00:51 | 13.76093 | 100.75590 | 855 ft | 267 kts | 181° |
| 2026-05-08 00:52 | 13.74344 | 100.75661 | 724 ft | 240 kts | 185° |
| 2026-05-08 00:52 | 13.73277 | 100.75375 | 449 ft | 229 kts | 201° |
| 2026-05-08 00:52 | 13.71833 | 100.74886 | 171 ft | 213 kts | 193° |
| 2026-05-08 00:52 | 13.70461 | 100.74533 | 33 ft | 193 kts | 193° |
| 2026-05-08 00:53 | 13.69227 | 100.74230 | 23 ft | 172 kts | 193° |
| 2026-05-08 00:53 | 13.68184 | 100.73991 | 36 ft | 52 kts | 147° |
| 2026-05-08 00:53 | 13.67951 | 100.74117 | 18 ft | 24 kts | 147° |